Time,TemperatureF,DewpointF,PressureIn,WindDirection,WindDirectionDegrees,WindSpeedMPH,WindSpeedGustMPH,Humidity,HourlyPrecipIn,Conditions,Clouds,dailyrainin,SoftwareType,DateUTC
2013-10-09 00:00:00,53.8,48.1,30.29,East,85,0.0,0.0,81,0.00,CLR,,0.00,WeatherDisplay:10.37,2013-10-09 04:00:00,
2013-10-09 00:01:00,53.8,48.4,30.29,East,85,0.0,0.0,82,0.00,CLR,,0.00,WeatherDisplay:10.37,2013-10-09 04:01:00,
2013-10-09 00:06:00,54.3,48.9,30.29,East,85,0.0,0.0,82,0.00,CLR,,0.00,WeatherDisplay:10.37,2013-10-09 04:06:00,
2013-10-09 00:07:00,52.7,47.4,30.29,East,85,0.0,0.0,82,0.00,CLR,,0.00,WeatherDisplay:10.37,2013-10-09 04:07:00,
2013-10-09 00:11:00,52.6,47.6,30.29,East,85,0.0,0.0,83,0.00,CLR,,0.00,WeatherDisplay:10.37,2013-10-09 04:11:00,
2013-10-09 00:12:00,52.9,47.9,30.29,East,85,0.0,0.0,83,0.00,CLR,,0.00,WeatherDisplay:10.37,2013-10-09 04:12:00,
2013-10-09 00:16:00,52.8,47.8,30.29,East,85,0.0,0.0,83,0.00,CLR,,0.00,WeatherDisplay:10.37,2013-10-09 04:16:00,
2013-10-09 00:17:00,53.2,48.2,30.29,East,85,0.0,0.0,83,0.00,CLR,,0.00,WeatherDisplay:10.37,2013-10-09 04:17:00,
2013-10-09 00:21:00,53.4,48.7,30.29,East,85,0.0,0.0,84,0.00,CLR,,0.00,WeatherDisplay:10.37,2013-10-09 04:21:00,
2013-10-09 00:22:00,52.9,48.2,30.29,East,85,0.0,0.0,84,0.00,CLR,,0.00,WeatherDisplay:10.37,2013-10-09 04:22:00,
2013-10-09 00:26:00,52.6,47.9,30.29,East,85,0.0,0.0,84,0.00,CLR,,0.00,WeatherDisplay:10.37,2013-10-09 04:26:00,
2013-10-09 00:27:00,53.1,48.4,30.29,East,85,0.0,0.0,84,0.00,CLR,,0.00,WeatherDisplay:10.37,2013-10-09 04:27:00,
2013-10-09 00:32:00,51.9,47.5,30.29,East,85,0.0,0.0,85,0.00,CLR,,0.00,WeatherDisplay:10.37,2013-10-09 04:32:00,
2013-10-09 00:33:00,52.4,48.0,30.29,East,85,0.0,0.0,85,0.00,CLR,,0.00,WeatherDisplay:10.37,2013-10-09 04:33:00,
2013-10-09 00:37:00,52.3,47.9,30.29,East,85,0.0,0.0,85,0.00,CLR,,0.00,WeatherDisplay:10.37,2013-10-09 04:37:00,
2013-10-09 00:38:00,52.0,47.6,30.29,East,85,0.0,0.0,85,0.00,CLR,,0.00,WeatherDisplay:10.37,2013-10-09 04:38:00,
2013-10-09 00:42:00,51.5,47.5,30.29,East,85,0.0,0.0,86,0.00,CLR,,0.00,WeatherDisplay:10.37,2013-10-09 04:42:00,
2013-10-09 00:43:00,51.5,47.5,30.29,East,85,0.0,0.0,86,0.00,CLR,,0.00,WeatherDisplay:10.37,2013-10-09 04:43:00,
2013-10-09 00:44:00,53.0,48.9,30.29,East,85,0.0,0.0,86,0.00,CLR,,0.00,WeatherDisplay:10.37,2013-10-09 04:44:00,
2013-10-09 00:48:00,51.7,48.0,30.29,East,85,0.0,0.0,87,0.00,CLR,,0.00,WeatherDisplay:10.37,2013-10-09 04:48:00,
2013-10-09 00:49:00,52.0,48.3,30.29,East,85,0.0,0.0,87,0.00,CLR,,0.00,WeatherDisplay:10.37,2013-10-09 04:49:00,
2013-10-09 00:50:00,52.6,48.8,30.29,East,85,0.0,0.0,87,0.00,CLR,,0.00,WeatherDisplay:10.37,2013-10-09 04:50:00,
2013-10-09 00:53:00,53.2,49.4,30.29,East,85,0.0,0.0,87,0.00,CLR,,0.00,WeatherDisplay:10.37,2013-10-09 04:53:00,
2013-10-09 00:54:00,51.9,48.2,30.29,East,85,0.0,0.0,87,0.00,CLR,,0.00,WeatherDisplay:10.37,2013-10-09 04:54:00,
2013-10-09 00:55:00,51.8,48.1,30.29,East,85,0.0,0.0,87,0.00,CLR,,0.00,WeatherDisplay:10.37,2013-10-09 04:55:00,
2013-10-09 00:58:00,52.0,48.3,30.29,East,85,0.0,0.0,87,0.00,CLR,,0.00,WeatherDisplay:10.37,2013-10-09 04:58:00,
2013-10-09 00:59:00,51.8,48.1,30.29,East,85,0.0,0.0,87,0.00,CLR,,0.00,WeatherDisplay:10.37,2013-10-09 04:59:00,
2013-10-09 01:00:00,51.4,47.7,30.28,East,85,0.0,0.0,87,0.00,CLR,,0.00,WeatherDisplay:10.37,2013-10-09 05:00:00,
2013-10-09 01:03:00,52.2,48.4,30.28,East,85,0.0,0.0,87,0.00,CLR,,0.00,WeatherDisplay:10.37,2013-10-09 05:03:00,
2013-10-09 01:05:00,52.2,48.4,30.28,East,85,0.0,0.0,87,0.00,CLR,,0.00,WeatherDisplay:10.37,2013-10-09 05:05:00,
2013-10-09 01:08:00,52.5,49.0,30.28,East,85,0.0,0.0,88,0.00,CLR,,0.00,WeatherDisplay:10.37,2013-10-09 05:08:00,
2013-10-09 01:09:00,51.4,47.7,30.28,East,85,0.0,0.0,87,0.00,CLR,,0.00,WeatherDisplay:10.37,2013-10-09 05:09:00,
2013-10-09 01:11:00,51.7,48.0,30.28,East,85,0.0,0.0,87,0.00,CLR,,0.00,WeatherDisplay:10.37,2013-10-09 05:11:00,
2013-10-09 01:13:00,52.6,48.8,30.28,East,85,0.0,0.0,87,0.00,CLR,,0.00,WeatherDisplay:10.37,2013-10-09 05:13:00,
2013-10-09 01:14:00,52.2,48.4,30.28,East,85,0.0,0.0,87,0.00,CLR,,0.00,WeatherDisplay:10.37,2013-10-09 05:14:00,
2013-10-09 01:16:00,52.7,48.9,30.28,East,85,0.0,0.0,87,0.00,CLR,,0.00,WeatherDisplay:10.37,2013-10-09 05:16:00,
2013-10-09 01:18:00,51.2,47.5,30.28,East,85,0.0,0.0,87,0.00,CLR,,0.00,WeatherDisplay:10.37,2013-10-09 05:18:00,
2013-10-09 01:19:00,52.1,48.3,30.28,East,85,0.0,0.0,87,0.00,CLR,,0.00,WeatherDisplay:10.37,2013-10-09 05:19:00,
2013-10-09 01:20:00,51.9,48.2,30.28,East,85,0.0,0.0,87,0.00,CLR,,0.00,WeatherDisplay:10.37,2013-10-09 05:20:00,
2013-10-09 01:21:00,51.8,48.4,30.28,East,85,0.0,0.0,88,0.00,CLR,,0.00,WeatherDisplay:10.37,2013-10-09 05:21:00,
2013-10-09 01:23:00,52.5,49.0,30.28,East,85,0.0,0.0,88,0.00,CLR,,0.00,WeatherDisplay:10.37,2013-10-09 05:23:00,
2013-10-09 01:24:00,51.7,48.3,30.28,East,85,0.0,0.0,88,0.00,CLR,,0.00,WeatherDisplay:10.37,2013-10-09 05:24:00,
2013-10-09 01:25:00,51.8,48.4,30.28,East,85,0.0,0.0,88,0.00,CLR,,0.00,WeatherDisplay:10.37,2013-10-09 05:25:00,
2013-10-09 01:26:00,51.4,48.0,30.28,East,85,0.0,0.0,88,0.00,CLR,,0.00,WeatherDisplay:10.37,2013-10-09 05:26:00,
2013-10-09 01:28:00,51.8,48.4,30.28,East,85,0.0,0.0,88,0.00,CLR,,0.00,WeatherDisplay:10.37,2013-10-09 05:28:00,
2013-10-09 01:29:00,51.8,48.4,30.28,East,85,0.0,0.0,88,0.00,CLR,,0.00,WeatherDisplay:10.37,2013-10-09 05:29:00,
2013-10-09 01:30:00,51.2,47.8,30.28,East,85,0.0,0.0,88,0.00,CLR,,0.00,WeatherDisplay:10.37,2013-10-09 05:30:00,
2013-10-09 01:31:00,50.7,47.6,30.28,East,85,0.0,0.0,89,0.00,CLR,,0.00,WeatherDisplay:10.37,2013-10-09 05:31:00,
2013-10-09 01:34:00,51.7,48.6,30.28,East,85,0.0,0.0,89,0.00,CLR,,0.00,WeatherDisplay:10.37,2013-10-09 05:34:00,
2013-10-09 01:35:00,51.0,47.9,30.28,East,85,0.0,0.0,89,0.00,CLR,,0.00,WeatherDisplay:10.37,2013-10-09 05:35:00,
2013-10-09 01:36:00,51.9,48.8,30.28,East,85,0.0,0.0,89,0.00,CLR,,0.00,WeatherDisplay:10.37,2013-10-09 05:36:00,
2013-10-09 01:37:00,51.3,48.5,30.28,East,85,0.0,0.0,90,0.00,CLR,,0.00,WeatherDisplay:10.37,2013-10-09 05:37:00,
2013-10-09 01:39:00,50.7,47.9,30.28,East,85,0.0,0.0,90,0.00,CLR,,0.00,WeatherDisplay:10.37,2013-10-09 05:39:00,
2013-10-09 01:40:00,51.1,48.3,30.28,East,85,0.0,0.0,90,0.00,CLR,,0.00,WeatherDisplay:10.37,2013-10-09 05:40:00,
2013-10-09 01:42:00,51.5,48.7,30.28,East,85,0.0,0.0,90,0.00,CLR,,0.00,WeatherDisplay:10.37,2013-10-09 05:42:00,
2013-10-09 01:43:00,50.6,47.8,30.28,East,85,0.0,0.0,90,0.00,CLR,,0.00,WeatherDisplay:10.37,2013-10-09 05:43:00,
2013-10-09 01:44:00,51.1,48.3,30.28,East,85,0.0,0.0,90,0.00,CLR,,0.00,WeatherDisplay:10.37,2013-10-09 05:44:00,
2013-10-09 01:45:00,51.1,48.3,30.28,East,85,0.0,0.0,90,0.00,CLR,,0.00,WeatherDisplay:10.37,2013-10-09 05:45:00,
2013-10-09 01:47:00,51.1,48.3,30.28,East,85,0.0,0.0,90,0.00,CLR,,0.00,WeatherDisplay:10.37,2013-10-09 05:47:00,
2013-10-09 01:49:00,51.4,48.6,30.28,East,85,0.0,0.0,90,0.00,CLR,,0.00,WeatherDisplay:10.37,2013-10-09 05:49:00,
2013-10-09 01:50:00,50.7,47.9,30.28,East,85,0.0,0.0,90,0.00,CLR,,0.00,WeatherDisplay:10.37,2013-10-09 05:50:00,
2013-10-09 01:52:00,51.6,48.8,30.28,East,85,0.0,0.0,90,0.00,CLR,,0.00,WeatherDisplay:10.37,2013-10-09 05:52:00,
2013-10-09 01:54:00,51.5,49.0,30.28,East,85,0.0,0.0,91,0.00,CLR,,0.00,WeatherDisplay:10.37,2013-10-09 05:54:00,
2013-10-09 01:55:00,50.8,48.3,30.28,East,85,0.0,0.0,91,0.00,CLR,,0.00,WeatherDisplay:10.37,2013-10-09 05:55:00,
2013-10-09 01:56:00,51.6,49.1,30.28,East,85,0.0,0.0,91,0.00,CLR,,0.00,WeatherDisplay:10.37,2013-10-09 05:56:00,
2013-10-09 01:57:00,51.6,49.1,30.28,East,85,0.0,0.0,91,0.00,CLR,,0.00,WeatherDisplay:10.37,2013-10-09 05:57:00,
2013-10-09 01:59:00,51.3,48.8,30.28,East,85,0.0,0.0,91,0.00,CLR,,0.00,WeatherDisplay:10.37,2013-10-09 05:59:00,
2013-10-09 02:00:00,50.8,48.3,30.28,East,85,0.0,0.0,91,0.00,CLR,,0.00,WeatherDisplay:10.37,2013-10-09 06:00:00,
2013-10-09 02:01:00,51.2,48.7,30.28,East,85,0.0,0.0,91,0.00,CLR,,0.00,WeatherDisplay:10.37,2013-10-09 06:01:00,
2013-10-09 02:02:00,51.3,48.8,30.28,East,85,0.0,0.0,91,0.00,CLR,,0.00,WeatherDisplay:10.37,2013-10-09 06:02:00,
2013-10-09 02:05:00,51.0,48.5,30.28,East,85,0.0,0.0,91,0.00,CLR,,0.00,WeatherDisplay:10.37,2013-10-09 06:05:00,
2013-10-09 02:06:00,51.1,48.6,30.28,East,85,0.0,0.0,91,0.00,CLR,,0.00,WeatherDisplay:10.37,2013-10-09 06:06:00,
2013-10-09 02:07:00,50.6,48.1,30.28,East,85,0.0,0.0,91,0.00,CLR,,0.00,WeatherDisplay:10.37,2013-10-09 06:07:00,
2013-10-09 02:10:00,50.6,48.1,30.28,East,85,0.0,0.0,91,0.00,CLR,,0.00,WeatherDisplay:10.37,2013-10-09 06:10:00,
2013-10-09 02:12:00,50.6,48.1,30.28,East,85,0.0,0.0,91,0.00,CLR,,0.00,WeatherDisplay:10.37,2013-10-09 06:12:00,
2013-10-09 02:13:00,51.4,48.9,30.28,East,85,0.0,0.0,91,0.00,CLR,,0.00,WeatherDisplay:10.37,2013-10-09 06:13:00,
2013-10-09 02:15:00,50.9,48.4,30.28,East,85,0.0,0.0,91,0.00,CLR,,0.00,WeatherDisplay:10.37,2013-10-09 06:15:00,
2013-10-09 02:16:00,50.3,48.1,30.28,East,85,0.0,0.0,92,0.00,CLR,,0.00,WeatherDisplay:10.37,2013-10-09 06:16:00,
2013-10-09 02:17:00,51.4,49.2,30.28,East,85,0.0,0.0,92,0.00,CLR,,0.00,WeatherDisplay:10.37,2013-10-09 06:17:00,
2013-10-09 02:18:00,50.4,48.2,30.28,East,85,0.0,0.0,92,0.00,CLR,,0.00,WeatherDisplay:10.37,2013-10-09 06:18:00,
2013-10-09 02:20:00,50.4,48.2,30.28,East,85,0.0,0.0,92,0.00,CLR,,0.00,WeatherDisplay:10.37,2013-10-09 06:20:00,
2013-10-09 02:21:00,50.5,48.3,30.28,East,85,0.0,0.0,92,0.00,CLR,,0.00,WeatherDisplay:10.37,2013-10-09 06:21:00,
2013-10-09 02:22:00,50.3,48.4,30.28,East,85,0.0,0.0,93,0.00,CLR,,0.00,WeatherDisplay:10.37,2013-10-09 06:22:00,
2013-10-09 02:23:00,50.8,48.8,30.28,East,85,0.0,0.0,93,0.00,CLR,,0.00,WeatherDisplay:10.37,2013-10-09 06:23:00,
2013-10-09 02:24:00,50.9,48.9,30.28,East,85,0.0,0.0,93,0.00,CLR,,0.00,WeatherDisplay:10.37,2013-10-09 06:24:00,
2013-10-09 02:25:00,50.1,48.2,30.28,East,85,0.0,0.0,93,0.00,CLR,,0.00,WeatherDisplay:10.37,2013-10-09 06:25:00,
2013-10-09 02:26:00,51.1,49.1,30.28,East,85,0.0,0.0,93,0.00,CLR,,0.00,WeatherDisplay:10.37,2013-10-09 06:26:00,
2013-10-09 02:27:00,50.1,48.2,30.28,East,85,0.0,0.0,93,0.00,CLR,,0.00,WeatherDisplay:10.37,2013-10-09 06:27:00,
2013-10-09 02:28:00,51.1,49.1,30.28,East,85,0.0,0.0,93,0.00,CLR,,0.00,WeatherDisplay:10.37,2013-10-09 06:28:00,
2013-10-09 02:29:00,50.7,48.7,30.28,East,85,0.0,0.0,93,0.00,CLR,,0.00,WeatherDisplay:10.37,2013-10-09 06:29:00,
2013-10-09 02:30:00,50.7,48.7,30.28,East,85,0.0,0.0,93,0.00,CLR,,0.00,WeatherDisplay:10.37,2013-10-09 06:30:00,
2013-10-09 02:31:00,50.2,48.3,30.28,East,85,0.0,0.0,93,0.00,CLR,,0.00,WeatherDisplay:10.37,2013-10-09 06:31:00,
2013-10-09 02:33:00,50.5,48.8,30.28,East,85,0.0,0.0,94,0.00,CLR,,0.00,WeatherDisplay:10.37,2013-10-09 06:33:00,
2013-10-09 02:35:00,50.7,49.0,30.28,East,85,0.0,0.0,94,0.00,CLR,,0.00,WeatherDisplay:10.37,2013-10-09 06:35:00,
2013-10-09 02:36:00,50.9,49.2,30.28,East,85,0.0,0.0,94,0.00,CLR,,0.00,WeatherDisplay:10.37,2013-10-09 06:36:00,
2013-10-09 02:38:00,51.0,49.3,30.28,East,85,0.0,0.0,94,0.00,CLR,,0.00,WeatherDisplay:10.37,2013-10-09 06:38:00,
2013-10-09 02:40:00,50.6,48.9,30.28,East,85,0.0,0.0,94,0.00,CLR,,0.00,WeatherDisplay:10.37,2013-10-09 06:40:00,
2013-10-09 02:41:00,50.3,48.6,30.27,East,85,0.0,0.0,94,0.00,CLR,,0.00,WeatherDisplay:10.37,2013-10-09 06:41:00,
2013-10-09 02:43:00,51.1,49.4,30.27,East,85,0.0,0.0,94,0.00,CLR,,0.00,WeatherDisplay:10.37,2013-10-09 06:43:00,
2013-10-09 02:45:00,51.7,50.0,30.27,East,85,0.0,0.0,94,0.00,CLR,,0.00,WeatherDisplay:10.37,2013-10-09 06:45:00,
2013-10-09 02:46:00,50.6,48.9,30.27,East,85,0.0,0.0,94,0.00,CLR,,0.00,WeatherDisplay:10.37,2013-10-09 06:46:00,
2013-10-09 02:47:00,51.0,49.3,30.27,East,85,0.0,0.0,94,0.00,CLR,,0.00,WeatherDisplay:10.37,2013-10-09 06:47:00,
2013-10-09 02:48:00,50.9,49.2,30.27,East,85,0.0,0.0,94,0.00,CLR,,0.00,WeatherDisplay:10.37,2013-10-09 06:48:00,
2013-10-09 02:50:00,50.6,48.9,30.27,East,85,0.0,0.0,94,0.00,CLR,,0.00,WeatherDisplay:10.37,2013-10-09 06:50:00,
2013-10-09 02:51:00,51.0,49.3,30.27,East,85,0.0,0.0,94,0.00,CLR,,0.00,WeatherDisplay:10.37,2013-10-09 06:51:00,
2013-10-09 02:52:00,50.5,48.8,30.27,East,85,0.0,0.0,94,0.00,CLR,,0.00,WeatherDisplay:10.37,2013-10-09 06:52:00,
2013-10-09 02:53:00,50.5,48.8,30.27,East,85,0.0,0.0,94,0.00,CLR,,0.00,WeatherDisplay:10.37,2013-10-09 06:53:00,
2013-10-09 02:55:00,50.3,48.6,30.27,East,85,0.0,0.0,94,0.00,CLR,,0.00,WeatherDisplay:10.37,2013-10-09 06:55:00,
2013-10-09 02:56:00,50.7,49.0,30.27,East,85,0.0,0.0,94,0.00,CLR,,0.00,WeatherDisplay:10.37,2013-10-09 06:56:00,
2013-10-09 02:57:00,50.2,48.5,30.27,East,85,0.0,0.0,94,0.00,CLR,,0.00,WeatherDisplay:10.37,2013-10-09 06:57:00,
2013-10-09 02:58:00,51.3,49.6,30.27,East,85,0.0,0.0,94,0.00,CLR,,0.00,WeatherDisplay:10.37,2013-10-09 06:58:00,
2013-10-09 02:59:00,50.5,48.8,30.27,East,85,0.0,0.0,94,0.00,CLR,,0.00,WeatherDisplay:10.37,2013-10-09 06:59:00,
2013-10-09 03:00:00,51.0,49.3,30.27,East,85,0.0,0.0,94,0.00,CLR,,0.00,WeatherDisplay:10.37,2013-10-09 07:00:00,
2013-10-09 03:01:00,50.9,49.2,30.27,East,85,0.0,0.0,94,0.00,CLR,,0.00,WeatherDisplay:10.37,2013-10-09 07:01:00,
2013-10-09 03:02:00,50.8,49.1,30.27,East,85,0.0,0.0,94,0.00,CLR,,0.00,WeatherDisplay:10.37,2013-10-09 07:02:00,
2013-10-09 03:03:00,51.3,49.6,30.27,East,85,0.0,0.0,94,0.00,CLR,,0.00,WeatherDisplay:10.37,2013-10-09 07:03:00,
2013-10-09 03:04:00,50.5,48.8,30.27,East,85,0.0,0.0,94,0.00,CLR,,0.00,WeatherDisplay:10.37,2013-10-09 07:04:00,
2013-10-09 03:06:00,50.6,48.9,30.27,East,85,0.0,0.0,94,0.00,CLR,,0.00,WeatherDisplay:10.37,2013-10-09 07:06:00,
2013-10-09 03:07:00,50.4,48.7,30.27,East,85,0.0,0.0,94,0.00,CLR,,0.00,WeatherDisplay:10.37,2013-10-09 07:07:00,
2013-10-09 03:08:00,50.9,49.2,30.27,East,85,0.0,0.0,94,0.00,CLR,,0.00,WeatherDisplay:10.37,2013-10-09 07:08:00,
2013-10-09 03:09:00,50.8,49.1,30.27,East,85,0.3,2.3,94,0.00,CLR,,0.00,WeatherDisplay:10.37,2013-10-09 07:09:00,
2013-10-09 03:11:00,50.2,48.5,30.27,East,85,0.0,0.0,94,0.00,CLR,,0.00,WeatherDisplay:10.37,2013-10-09 07:11:00,
2013-10-09 03:12:00,50.9,49.2,30.27,East,85,0.0,0.0,94,0.00,CLR,,0.00,WeatherDisplay:10.37,2013-10-09 07:12:00,
2013-10-09 03:13:00,51.0,49.6,30.27,East,85,0.0,0.0,95,0.00,CLR,,0.00,WeatherDisplay:10.37,2013-10-09 07:13:00,
2013-10-09 03:14:00,50.5,49.1,30.27,East,85,0.0,0.0,95,0.00,CLR,,0.00,WeatherDisplay:10.37,2013-10-09 07:14:00,
2013-10-09 03:16:00,50.8,49.1,30.27,East,85,0.0,0.0,94,0.00,CLR,,0.00,WeatherDisplay:10.37,2013-10-09 07:16:00,
2013-10-09 03:17:00,51.1,49.4,30.27,East,85,0.0,0.0,94,0.00,CLR,,0.00,WeatherDisplay:10.37,2013-10-09 07:17:00,
2013-10-09 03:18:00,50.4,48.7,30.27,East,85,0.0,0.0,94,0.00,CLR,,0.00,WeatherDisplay:10.37,2013-10-09 07:18:00,
2013-10-09 03:19:00,50.9,49.2,30.27,East,85,0.0,0.0,94,0.00,CLR,,0.00,WeatherDisplay:10.37,2013-10-09 07:19:00,
2013-10-09 03:20:00,51.4,49.7,30.27,East,85,0.0,0.0,94,0.00,CLR,,0.00,WeatherDisplay:10.37,2013-10-09 07:20:00,
2013-10-09 03:21:00,51.5,49.8,30.27,East,85,0.0,0.0,94,0.00,CLR,,0.00,WeatherDisplay:10.37,2013-10-09 07:21:00,
2013-10-09 03:22:00,50.3,48.6,30.27,East,85,0.0,0.0,94,0.00,CLR,,0.00,WeatherDisplay:10.37,2013-10-09 07:22:00,
2013-10-09 03:23:00,50.5,48.8,30.27,East,85,0.0,0.0,94,0.00,CLR,,0.00,WeatherDisplay:10.37,2013-10-09 07:23:00,
2013-10-09 03:24:00,50.1,48.4,30.27,East,85,0.0,0.0,94,0.00,CLR,,0.00,WeatherDisplay:10.37,2013-10-09 07:24:00,
2013-10-09 03:25:00,50.8,49.1,30.27,East,85,0.0,0.0,94,0.00,CLR,,0.00,WeatherDisplay:10.37,2013-10-09 07:25:00,
2013-10-09 03:27:00,50.4,48.7,30.27,East,85,0.0,0.0,94,0.00,CLR,,0.00,WeatherDisplay:10.37,2013-10-09 07:27:00,
2013-10-09 03:28:00,50.1,48.4,30.27,East,85,0.0,0.0,94,0.00,CLR,,0.00,WeatherDisplay:10.37,2013-10-09 07:28:00,
2013-10-09 03:29:00,50.7,49.0,30.27,East,85,0.0,0.0,94,0.00,CLR,,0.00,WeatherDisplay:10.37,2013-10-09 07:29:00,
2013-10-09 03:30:00,50.8,49.1,30.27,East,85,0.0,0.0,94,0.00,CLR,,0.00,WeatherDisplay:10.37,2013-10-09 07:30:00,
2013-10-09 03:32:00,50.2,48.5,30.27,East,85,0.0,0.0,94,0.00,CLR,,0.00,WeatherDisplay:10.37,2013-10-09 07:32:00,
2013-10-09 03:33:00,50.7,49.0,30.27,East,85,0.0,0.0,94,0.00,CLR,,0.00,WeatherDisplay:10.37,2013-10-09 07:33:00,
2013-10-09 03:35:00,50.8,49.1,30.27,East,85,0.0,0.0,94,0.00,CLR,,0.00,WeatherDisplay:10.37,2013-10-09 07:35:00,
2013-10-09 03:37:00,51.2,49.5,30.27,East,85,0.0,0.0,94,0.00,CLR,,0.00,WeatherDisplay:10.37,2013-10-09 07:37:00,
2013-10-09 03:38:00,50.5,48.8,30.27,East,85,0.0,0.0,94,0.00,CLR,,0.00,WeatherDisplay:10.37,2013-10-09 07:38:00,
2013-10-09 03:40:00,50.5,48.8,30.27,East,85,0.0,0.0,94,0.00,CLR,,0.00,WeatherDisplay:10.37,2013-10-09 07:40:00,
2013-10-09 03:41:00,50.2,48.5,30.27,East,85,0.0,0.0,94,0.00,CLR,,0.00,WeatherDisplay:10.37,2013-10-09 07:41:00,
2013-10-09 03:42:00,51.4,50.0,30.27,East,85,0.0,0.0,95,0.00,CLR,,0.00,WeatherDisplay:10.37,2013-10-09 07:42:00,
2013-10-09 03:43:00,50.6,49.2,30.27,East,85,0.0,0.0,95,0.00,CLR,,0.00,WeatherDisplay:10.37,2013-10-09 07:43:00,
2013-10-09 03:45:00,50.6,49.2,30.27,East,85,0.0,0.0,95,0.00,CLR,,0.00,WeatherDisplay:10.37,2013-10-09 07:45:00,
2013-10-09 03:46:00,50.9,49.5,30.27,East,85,0.0,0.0,95,0.00,CLR,,0.00,WeatherDisplay:10.37,2013-10-09 07:46:00,
2013-10-09 03:47:00,51.2,49.8,30.27,East,85,0.0,0.0,95,0.00,CLR,,0.00,WeatherDisplay:10.37,2013-10-09 07:47:00,
2013-10-09 03:48:00,50.2,48.8,30.27,East,85,0.0,0.0,95,0.00,CLR,,0.00,WeatherDisplay:10.37,2013-10-09 07:48:00,
2013-10-09 03:49:00,51.1,49.7,30.27,East,85,0.0,0.0,95,0.00,CLR,,0.00,WeatherDisplay:10.37,2013-10-09 07:49:00,
2013-10-09 03:50:00,50.3,48.9,30.27,East,85,0.0,0.0,95,0.00,CLR,,0.00,WeatherDisplay:10.37,2013-10-09 07:50:00,
2013-10-09 03:51:00,50.4,49.0,30.27,East,85,0.0,0.0,95,0.00,CLR,,0.00,WeatherDisplay:10.37,2013-10-09 07:51:00,
2013-10-09 03:52:00,50.2,48.8,30.27,East,85,0.0,0.0,95,0.00,CLR,,0.00,WeatherDisplay:10.37,2013-10-09 07:52:00,
2013-10-09 03:53:00,51.0,49.6,30.27,East,85,0.0,0.0,95,0.00,CLR,,0.00,WeatherDisplay:10.37,2013-10-09 07:53:00,
2013-10-09 03:54:00,50.4,49.0,30.27,East,85,0.0,0.0,95,0.00,CLR,,0.00,WeatherDisplay:10.37,2013-10-09 07:54:00,
2013-10-09 03:57:00,50.2,48.8,30.27,East,85,0.0,0.0,95,0.00,CLR,,0.00,WeatherDisplay:10.37,2013-10-09 07:57:00,
2013-10-09 03:58:00,50.3,48.9,30.27,East,85,0.0,0.0,95,0.00,CLR,,0.00,WeatherDisplay:10.37,2013-10-09 07:58:00,
2013-10-09 03:59:00,50.8,49.4,30.27,East,85,0.0,0.0,95,0.00,CLR,,0.00,WeatherDisplay:10.37,2013-10-09 07:59:00,
2013-10-09 04:02:00,50.6,49.2,30.27,East,85,0.0,0.0,95,0.00,CLR,,0.00,WeatherDisplay:10.37,2013-10-09 08:02:00,
2013-10-09 04:03:00,51.0,49.9,30.27,East,85,0.0,0.0,96,0.00,CLR,,0.00,WeatherDisplay:10.37,2013-10-09 08:03:00,
2013-10-09 04:04:00,50.9,49.8,30.27,East,85,0.0,0.0,96,0.00,CLR,,0.00,WeatherDisplay:10.37,2013-10-09 08:04:00,
2013-10-09 04:07:00,50.3,49.2,30.27,East,85,0.0,0.0,96,0.00,CLR,,0.00,WeatherDisplay:10.37,2013-10-09 08:07:00,
2013-10-09 04:08:00,50.0,48.9,30.27,East,85,0.0,0.0,96,0.00,CLR,,0.00,WeatherDisplay:10.37,2013-10-09 08:08:00,
2013-10-09 04:09:00,50.5,49.4,30.27,East,85,0.0,0.0,96,0.00,CLR,,0.00,WeatherDisplay:10.37,2013-10-09 08:09:00,
2013-10-09 04:12:00,50.7,49.6,30.27,East,85,0.0,0.0,96,0.00,CLR,,0.00,WeatherDisplay:10.37,2013-10-09 08:12:00,
2013-10-09 04:13:00,50.2,49.1,30.27,East,85,0.0,0.0,96,0.00,CLR,,0.00,WeatherDisplay:10.37,2013-10-09 08:13:00,
2013-10-09 04:14:00,50.5,49.4,30.27,East,85,0.0,0.0,96,0.00,CLR,,0.00,WeatherDisplay:10.37,2013-10-09 08:14:00,
2013-10-09 04:17:00,50.4,49.3,30.27,East,85,0.0,0.0,96,0.00,CLR,,0.00,WeatherDisplay:10.37,2013-10-09 08:17:00,
2013-10-09 04:18:00,50.3,49.2,30.27,East,85,0.0,0.0,96,0.00,CLR,,0.00,WeatherDisplay:10.37,2013-10-09 08:18:00,
2013-10-09 04:19:00,50.3,49.2,30.27,East,85,0.0,0.0,96,0.00,CLR,,0.00,WeatherDisplay:10.37,2013-10-09 08:19:00,
2013-10-09 04:22:00,50.4,49.3,30.27,East,85,0.0,0.0,96,0.00,CLR,,0.00,WeatherDisplay:10.37,2013-10-09 08:22:00,
2013-10-09 04:23:00,50.7,49.6,30.27,East,85,0.0,0.0,96,0.00,CLR,,0.00,WeatherDisplay:10.37,2013-10-09 08:23:00,
2013-10-09 04:24:00,50.1,49.0,30.27,East,85,0.0,0.0,96,0.00,CLR,,0.00,WeatherDisplay:10.37,2013-10-09 08:24:00,
2013-10-09 04:25:00,50.2,49.1,30.27,East,85,0.0,0.0,96,0.00,CLR,,0.00,WeatherDisplay:10.37,2013-10-09 08:25:00,
2013-10-09 04:27:00,50.4,49.3,30.27,East,85,0.0,0.0,96,0.00,CLR,,0.00,WeatherDisplay:10.37,2013-10-09 08:27:00,
2013-10-09 04:29:00,50.0,48.9,30.27,East,85,0.0,0.0,96,0.00,CLR,,0.00,WeatherDisplay:10.37,2013-10-09 08:29:00,
2013-10-09 04:31:00,50.1,49.3,30.27,East,85,0.0,0.0,97,0.00,CLR,,0.00,WeatherDisplay:10.37,2013-10-09 08:31:00,
2013-10-09 04:33:00,50.1,49.3,30.27,East,85,0.0,0.0,97,0.00,CLR,,0.00,WeatherDisplay:10.37,2013-10-09 08:33:00,
2013-10-09 04:34:00,50.2,49.4,30.27,East,85,0.0,0.0,97,0.00,CLR,,0.00,WeatherDisplay:10.37,2013-10-09 08:34:00,
2013-10-09 04:35:00,50.1,49.3,30.27,East,85,0.0,0.0,97,0.00,CLR,,0.00,WeatherDisplay:10.37,2013-10-09 08:35:00,
2013-10-09 04:36:00,50.5,49.7,30.27,East,85,0.0,0.0,97,0.00,CLR,,0.00,WeatherDisplay:10.37,2013-10-09 08:36:00,
2013-10-09 04:38:00,50.1,49.3,30.27,East,85,0.0,0.0,97,0.00,CLR,,0.00,WeatherDisplay:10.37,2013-10-09 08:38:00,
2013-10-09 04:39:00,50.2,49.4,30.27,East,85,0.0,0.0,97,0.00,CLR,,0.00,WeatherDisplay:10.37,2013-10-09 08:39:00,
2013-10-09 04:40:00,50.1,49.3,30.27,East,85,0.0,0.0,97,0.00,CLR,,0.00,WeatherDisplay:10.37,2013-10-09 08:40:00,
2013-10-09 04:41:00,50.1,49.3,30.27,East,85,0.0,0.0,97,0.00,CLR,,0.00,WeatherDisplay:10.37,2013-10-09 08:41:00,
2013-10-09 04:42:00,50.2,49.4,30.27,East,85,0.0,0.0,97,0.00,CLR,,0.00,WeatherDisplay:10.37,2013-10-09 08:42:00,
2013-10-09 04:43:00,50.1,49.3,30.27,East,85,0.0,0.0,97,0.00,CLR,,0.00,WeatherDisplay:10.37,2013-10-09 08:43:00,
2013-10-09 04:44:00,50.1,49.3,30.27,East,85,0.0,0.0,97,0.00,CLR,,0.00,WeatherDisplay:10.37,2013-10-09 08:44:00,
2013-10-09 04:45:00,50.1,49.3,30.27,East,85,0.0,0.0,97,0.00,CLR,,0.00,WeatherDisplay:10.37,2013-10-09 08:45:00,
2013-10-09 04:46:00,50.3,49.5,30.27,East,85,0.0,0.0,97,0.00,CLR,,0.00,WeatherDisplay:10.37,2013-10-09 08:46:00,
2013-10-09 04:47:00,50.2,49.4,30.27,East,85,0.0,0.0,97,0.00,CLR,,0.00,WeatherDisplay:10.37,2013-10-09 08:47:00,
2013-10-09 04:48:00,50.2,49.4,30.27,East,85,0.0,0.0,97,0.00,CLR,,0.00,WeatherDisplay:10.37,2013-10-09 08:48:00,
2013-10-09 04:49:00,50.3,49.5,30.27,East,85,0.0,0.0,97,0.00,CLR,,0.00,WeatherDisplay:10.37,2013-10-09 08:49:00,
2013-10-09 04:50:00,49.9,49.1,30.27,East,85,0.0,0.0,97,0.00,CLR,,0.00,WeatherDisplay:10.37,2013-10-09 08:50:00,
2013-10-09 04:51:00,50.1,49.6,30.27,East,85,0.0,0.0,98,0.00,CLR,,0.00,WeatherDisplay:10.37,2013-10-09 08:51:00,
2013-10-09 04:52:00,50.1,49.3,30.27,East,85,0.0,0.0,97,0.00,CLR,,0.00,WeatherDisplay:10.37,2013-10-09 08:52:00,
2013-10-09 04:53:00,50.0,49.5,30.27,East,85,0.0,0.0,98,0.00,CLR,,0.00,WeatherDisplay:10.37,2013-10-09 08:53:00,
2013-10-09 04:54:00,50.1,49.3,30.27,East,85,0.0,0.0,97,0.00,CLR,,0.00,WeatherDisplay:10.37,2013-10-09 08:54:00,
2013-10-09 04:55:00,50.2,49.7,30.27,NNE,17,0.0,0.0,98,0.00,CLR,,0.00,WeatherDisplay:10.37,2013-10-09 08:55:00,
2013-10-09 04:56:00,50.1,49.6,30.27,NNE,17,0.0,0.0,98,0.00,CLR,,0.00,WeatherDisplay:10.37,2013-10-09 08:56:00,
2013-10-09 04:58:00,50.0,49.5,30.27,NNE,17,0.0,0.0,98,0.00,CLR,,0.00,WeatherDisplay:10.37,2013-10-09 08:58:00,
2013-10-09 04:59:00,50.0,49.5,30.27,NNE,17,0.0,0.0,98,0.00,CLR,,0.00,WeatherDisplay:10.37,2013-10-09 08:59:00,
2013-10-09 05:00:00,50.1,49.6,30.27,NNE,17,0.0,0.0,98,0.00,CLR,,0.00,WeatherDisplay:10.37,2013-10-09 09:00:00,
2013-10-09 05:01:00,50.0,49.5,30.26,NNE,17,0.0,0.0,98,0.00,CLR,,0.00,WeatherDisplay:10.37,2013-10-09 09:01:00,
2013-10-09 05:02:00,50.0,49.5,30.26,NNE,17,0.0,0.0,98,0.00,CLR,,0.00,WeatherDisplay:10.37,2013-10-09 09:02:00,
2013-10-09 05:04:00,50.1,49.6,30.27,NNE,17,0.0,0.0,98,0.00,CLR,,0.00,WeatherDisplay:10.37,2013-10-09 09:04:00,
2013-10-09 05:06:00,49.9,49.4,30.27,NNE,17,0.0,0.0,98,0.00,CLR,,0.00,WeatherDisplay:10.37,2013-10-09 09:06:00,
2013-10-09 05:07:00,49.9,49.4,30.27,NNE,17,0.0,0.0,98,0.00,CLR,,0.00,WeatherDisplay:10.37,2013-10-09 09:07:00,
2013-10-09 05:09:00,50.0,49.5,30.27,NNE,17,0.0,0.0,98,0.00,CLR,,0.00,WeatherDisplay:10.37,2013-10-09 09:09:00,
2013-10-09 05:10:00,50.4,49.9,30.27,NNE,17,0.0,0.0,98,0.00,CLR,,0.00,WeatherDisplay:10.37,2013-10-09 09:10:00,
2013-10-09 05:11:00,49.7,49.2,30.26,NNE,17,0.0,0.0,98,0.00,CLR,,0.00,WeatherDisplay:10.37,2013-10-09 09:11:00,
2013-10-09 05:12:00,50.1,49.6,30.26,NNE,17,0.0,0.0,98,0.00,CLR,,0.00,WeatherDisplay:10.37,2013-10-09 09:12:00,
2013-10-09 05:14:00,50.0,49.5,30.27,NNE,17,0.0,0.0,98,0.00,CLR,,0.00,WeatherDisplay:10.37,2013-10-09 09:14:00,
2013-10-09 05:16:00,49.8,49.3,30.27,NNE,17,0.0,0.0,98,0.00,CLR,,0.00,WeatherDisplay:10.37,2013-10-09 09:16:00,
2013-10-09 05:17:00,49.9,49.4,30.27,NNE,17,0.0,0.0,98,0.00,CLR,,0.00,WeatherDisplay:10.37,2013-10-09 09:17:00,
2013-10-09 05:19:00,50.1,49.6,30.27,NNE,17,0.0,0.0,98,0.00,CLR,,0.00,WeatherDisplay:10.37,2013-10-09 09:19:00,
2013-10-09 05:20:00,49.9,49.4,30.27,NNE,17,0.0,0.0,98,0.00,CLR,,0.00,WeatherDisplay:10.37,2013-10-09 09:20:00,
2013-10-09 05:21:00,50.1,49.6,30.27,NNE,17,0.0,0.0,98,0.00,CLR,,0.00,WeatherDisplay:10.37,2013-10-09 09:21:00,
2013-10-09 05:22:00,49.9,49.4,30.27,NNE,17,0.0,0.0,98,0.00,CLR,,0.00,WeatherDisplay:10.37,2013-10-09 09:22:00,
2013-10-09 05:24:00,49.9,49.4,30.27,NNE,17,0.0,0.0,98,0.00,CLR,,0.00,WeatherDisplay:10.37,2013-10-09 09:24:00,
2013-10-09 05:25:00,50.0,49.5,30.27,NNE,17,0.0,0.0,98,0.00,CLR,,0.00,WeatherDisplay:10.37,2013-10-09 09:25:00,
2013-10-09 05:26:00,50.2,49.7,30.27,NNE,17,0.0,0.0,98,0.00,CLR,,0.00,WeatherDisplay:10.37,2013-10-09 09:26:00,
2013-10-09 05:27:00,49.9,49.4,30.27,NNE,17,0.0,0.0,98,0.00,CLR,,0.00,WeatherDisplay:10.37,2013-10-09 09:27:00,
2013-10-09 05:28:00,50.0,49.5,30.27,NNE,17,0.0,0.0,98,0.00,CLR,,0.00,WeatherDisplay:10.37,2013-10-09 09:28:00,
2013-10-09 05:29:00,50.1,49.6,30.27,NNE,17,0.0,0.0,98,0.00,CLR,,0.00,WeatherDisplay:10.37,2013-10-09 09:29:00,
2013-10-09 05:30:00,50.1,49.6,30.27,NNE,17,0.0,0.0,98,0.00,CLR,,0.00,WeatherDisplay:10.37,2013-10-09 09:30:00,
2013-10-09 05:32:00,50.2,49.7,30.27,NNE,17,0.0,0.0,98,0.00,CLR,,0.00,WeatherDisplay:10.37,2013-10-09 09:32:00,
2013-10-09 05:33:00,50.0,49.5,30.27,NNE,17,0.0,0.0,98,0.00,CLR,,0.00,WeatherDisplay:10.37,2013-10-09 09:33:00,
2013-10-09 05:34:00,50.0,49.5,30.27,NNE,17,0.0,0.0,98,0.00,CLR,,0.00,WeatherDisplay:10.37,2013-10-09 09:34:00,
2013-10-09 05:35:00,50.2,49.7,30.27,NNE,17,0.0,0.0,98,0.00,CLR,,0.00,WeatherDisplay:10.37,2013-10-09 09:35:00,
2013-10-09 05:37:00,50.0,49.5,30.27,NNE,17,0.0,0.0,98,0.00,CLR,,0.00,WeatherDisplay:10.37,2013-10-09 09:37:00,
2013-10-09 05:38:00,50.1,49.6,30.27,NNE,17,0.0,0.0,98,0.00,CLR,,0.00,WeatherDisplay:10.37,2013-10-09 09:38:00,
2013-10-09 05:40:00,50.5,50.0,30.27,NNE,17,0.0,0.0,98,0.00,CLR,,0.00,WeatherDisplay:10.37,2013-10-09 09:40:00,
2013-10-09 05:42:00,50.2,49.7,30.27,NNE,17,0.0,0.0,98,0.00,CLR,,0.00,WeatherDisplay:10.37,2013-10-09 09:42:00,
2013-10-09 05:43:00,50.3,49.8,30.27,NNE,17,0.0,0.0,98,0.00,CLR,,0.00,WeatherDisplay:10.37,2013-10-09 09:43:00,
2013-10-09 05:45:00,50.1,49.6,30.27,NNE,17,0.0,0.0,98,0.00,CLR,,0.00,WeatherDisplay:10.37,2013-10-09 09:45:00,
2013-10-09 05:46:00,49.9,49.4,30.27,NNE,17,0.0,0.0,98,0.00,CLR,,0.00,WeatherDisplay:10.37,2013-10-09 09:46:00,
2013-10-09 05:47:00,49.9,49.4,30.27,NNE,17,0.0,0.0,98,0.00,CLR,,0.00,WeatherDisplay:10.37,2013-10-09 09:47:00,
2013-10-09 05:48:00,50.4,49.9,30.27,NNE,17,0.0,0.0,98,0.00,CLR,,0.00,WeatherDisplay:10.37,2013-10-09 09:48:00,
2013-10-09 05:49:00,50.1,49.6,30.27,NNE,17,0.0,0.0,98,0.00,CLR,,0.00,WeatherDisplay:10.37,2013-10-09 09:49:00,
2013-10-09 05:50:00,50.0,49.5,30.27,NNE,17,0.0,0.0,98,0.00,CLR,,0.00,WeatherDisplay:10.37,2013-10-09 09:50:00,
2013-10-09 05:51:00,50.1,49.6,30.27,NNE,17,0.0,0.0,98,0.00,CLR,,0.00,WeatherDisplay:10.37,2013-10-09 09:51:00,
2013-10-09 05:52:00,50.2,49.7,30.27,NNE,17,0.0,0.0,98,0.00,CLR,,0.00,WeatherDisplay:10.37,2013-10-09 09:52:00,
2013-10-09 05:53:00,50.1,49.6,30.27,NNE,17,0.0,0.0,98,0.00,CLR,,0.00,WeatherDisplay:10.37,2013-10-09 09:53:00,
2013-10-09 05:54:00,50.3,49.8,30.27,NNE,17,0.0,0.0,98,0.00,CLR,,0.00,WeatherDisplay:10.37,2013-10-09 09:54:00,
2013-10-09 05:55:00,49.9,49.4,30.27,NNE,17,0.0,0.0,98,0.00,CLR,,0.00,WeatherDisplay:10.37,2013-10-09 09:55:00,
2013-10-09 05:56:00,50.3,49.8,30.27,NNE,17,0.0,0.0,98,0.00,CLR,,0.00,WeatherDisplay:10.37,2013-10-09 09:56:00,
2013-10-09 05:57:00,50.3,49.8,30.27,NNE,17,0.0,0.0,98,0.00,CLR,,0.00,WeatherDisplay:10.37,2013-10-09 09:57:00,
2013-10-09 05:59:00,50.1,49.6,30.27,NNE,17,0.0,0.0,98,0.00,CLR,,0.00,WeatherDisplay:10.37,2013-10-09 09:59:00,
2013-10-09 06:00:00,50.1,49.6,30.27,NNE,17,0.0,0.0,98,0.00,CLR,,0.00,WeatherDisplay:10.37,2013-10-09 10:00:00,
2013-10-09 06:01:00,50.0,49.5,30.27,NNE,17,0.0,0.0,98,0.00,CLR,,0.00,WeatherDisplay:10.37,2013-10-09 10:01:00,
2013-10-09 06:03:00,50.2,49.7,30.27,NNE,17,0.0,0.0,98,0.00,CLR,,0.00,WeatherDisplay:10.37,2013-10-09 10:03:00,
2013-10-09 06:04:00,50.3,49.8,30.27,NNE,17,0.0,0.0,98,0.00,CLR,,0.00,WeatherDisplay:10.37,2013-10-09 10:04:00,
2013-10-09 06:06:00,50.0,49.5,30.27,NNE,17,0.0,0.0,98,0.00,CLR,,0.00,WeatherDisplay:10.37,2013-10-09 10:06:00,
2013-10-09 06:07:00,50.5,50.0,30.27,NNE,17,0.0,0.0,98,0.00,CLR,,0.00,WeatherDisplay:10.37,2013-10-09 10:07:00,
2013-10-09 06:08:00,50.2,49.7,30.27,NNE,17,0.0,0.0,98,0.00,CLR,,0.00,WeatherDisplay:10.37,2013-10-09 10:08:00,
2013-10-09 06:09:00,50.1,49.6,30.27,NNE,17,0.0,0.0,98,0.00,CLR,,0.00,WeatherDisplay:10.37,2013-10-09 10:09:00,
2013-10-09 06:11:00,50.5,50.0,30.27,NNE,17,0.0,0.0,98,0.00,CLR,,0.00,WeatherDisplay:10.37,2013-10-09 10:11:00,
2013-10-09 06:12:00,50.0,49.5,30.27,NNE,17,0.0,0.0,98,0.00,CLR,,0.00,WeatherDisplay:10.37,2013-10-09 10:12:00,
2013-10-09 06:13:00,50.4,49.9,30.27,NNE,17,0.0,0.0,98,0.00,CLR,,0.00,WeatherDisplay:10.37,2013-10-09 10:13:00,
2013-10-09 06:15:00,50.5,50.0,30.27,NNE,17,0.0,0.0,98,0.00,CLR,,0.00,WeatherDisplay:10.37,2013-10-09 10:15:00,
2013-10-09 06:16:00,50.1,49.6,30.27,NNE,17,0.0,0.0,98,0.00,CLR,,0.00,WeatherDisplay:10.37,2013-10-09 10:16:00,
2013-10-09 06:17:00,50.0,49.5,30.27,NNE,17,0.0,0.0,98,0.00,CLR,,0.00,WeatherDisplay:10.37,2013-10-09 10:17:00,
2013-10-09 06:18:00,50.1,49.6,30.27,NNE,17,0.0,0.0,98,0.00,CLR,,0.00,WeatherDisplay:10.37,2013-10-09 10:18:00,
2013-10-09 06:22:00,50.1,49.6,30.27,NNE,17,0.0,0.0,98,0.00,CLR,,0.00,WeatherDisplay:10.37,2013-10-09 10:22:00,
2013-10-09 06:23:00,50.2,49.7,30.27,NNE,17,0.0,0.0,98,0.00,CLR,,0.00,WeatherDisplay:10.37,2013-10-09 10:23:00,
2013-10-09 06:27:00,50.0,49.5,30.26,NNE,17,0.0,0.0,98,0.00,CLR,,0.00,WeatherDisplay:10.37,2013-10-09 10:27:00,
2013-10-09 06:28:00,50.1,49.6,30.26,NNE,17,0.0,0.0,98,0.00,CLR,,0.00,WeatherDisplay:10.37,2013-10-09 10:28:00,
2013-10-09 06:32:00,50.0,49.5,30.26,NNE,17,0.0,0.0,98,0.00,CLR,,0.00,WeatherDisplay:10.37,2013-10-09 10:32:00,
2013-10-09 06:33:00,50.1,49.6,30.26,NNE,17,0.0,0.0,98,0.00,CLR,,0.00,WeatherDisplay:10.37,2013-10-09 10:33:00,
2013-10-09 06:37:00,49.8,49.5,30.26,NNE,17,0.0,0.0,99,0.00,CLR,,0.00,WeatherDisplay:10.37,2013-10-09 10:37:00,
2013-10-09 06:38:00,49.8,49.5,30.26,NNE,17,0.0,0.0,99,0.00,CLR,,0.00,WeatherDisplay:10.37,2013-10-09 10:38:00,
2013-10-09 06:43:00,50.0,49.7,30.26,NNE,17,0.0,0.0,99,0.00,CLR,,0.00,WeatherDisplay:10.37,2013-10-09 10:43:00,
2013-10-09 06:44:00,49.8,49.5,30.26,NNE,17,0.0,0.0,99,0.00,CLR,,0.00,WeatherDisplay:10.37,2013-10-09 10:44:00,
2013-10-09 06:48:00,50.0,49.7,30.26,NNE,17,0.0,0.0,99,0.00,CLR,,0.00,WeatherDisplay:10.37,2013-10-09 10:48:00,
2013-10-09 06:49:00,50.0,49.7,30.26,NNE,17,0.0,0.0,99,0.00,CLR,,0.00,WeatherDisplay:10.37,2013-10-09 10:49:00,
2013-10-09 06:53:00,49.8,49.5,30.27,NNE,17,0.0,0.0,99,0.00,CLR,,0.00,WeatherDisplay:10.37,2013-10-09 10:53:00,
2013-10-09 06:54:00,50.1,49.8,30.27,NNE,17,0.0,0.0,99,0.00,CLR,,0.00,WeatherDisplay:10.37,2013-10-09 10:54:00,
2013-10-09 06:55:00,49.8,49.5,30.27,NNE,17,0.0,0.0,99,0.00,CLR,,0.00,WeatherDisplay:10.37,2013-10-09 10:55:00,
2013-10-09 06:58:00,49.9,49.6,30.27,NNE,17,0.0,0.0,99,0.00,CLR,,0.00,WeatherDisplay:10.37,2013-10-09 10:58:00,
2013-10-09 06:59:00,49.8,49.5,30.27,NNE,17,0.0,0.0,99,0.00,CLR,,0.00,WeatherDisplay:10.37,2013-10-09 10:59:00,
2013-10-09 07:00:00,50.0,49.7,30.27,NNE,17,0.0,0.0,99,0.00,CLR,,0.00,WeatherDisplay:10.37,2013-10-09 11:00:00,
2013-10-09 07:03:00,50.1,49.8,30.27,NNE,17,0.0,0.0,99,0.00,CLR,,0.00,WeatherDisplay:10.37,2013-10-09 11:03:00,
2013-10-09 07:04:00,50.1,49.8,30.27,NNE,17,0.0,0.0,99,0.00,CLR,,0.00,WeatherDisplay:10.37,2013-10-09 11:04:00,
2013-10-09 07:05:00,50.0,49.7,30.27,NNE,17,0.0,0.0,99,0.00,CLR,,0.00,WeatherDisplay:10.37,2013-10-09 11:05:00,
2013-10-09 07:08:00,49.9,49.6,30.27,NNE,17,0.0,0.0,99,0.00,CLR,,0.00,WeatherDisplay:10.37,2013-10-09 11:08:00,
2013-10-09 07:09:00,50.1,49.8,30.27,NNE,17,0.0,0.0,99,0.00,CLR,,0.00,WeatherDisplay:10.37,2013-10-09 11:09:00,
2013-10-09 07:10:00,50.1,49.8,30.27,NNE,17,0.0,0.0,99,0.00,CLR,,0.00,WeatherDisplay:10.37,2013-10-09 11:10:00,
2013-10-09 07:13:00,49.8,49.5,30.28,NNE,17,0.0,0.0,99,0.00,CLR,,0.00,WeatherDisplay:10.37,2013-10-09 11:13:00,
2013-10-09 07:14:00,50.1,49.8,30.28,NNE,17,0.0,0.0,99,0.00,CLR,,0.00,WeatherDisplay:10.37,2013-10-09 11:14:00,
2013-10-09 07:15:00,50.0,49.7,30.28,NNE,17,0.0,0.0,99,0.00,CLR,,0.00,WeatherDisplay:10.37,2013-10-09 11:15:00,
2013-10-09 07:16:00,50.1,49.8,30.28,NNE,17,0.0,0.0,99,0.00,CLR,,0.00,WeatherDisplay:10.37,2013-10-09 11:16:00,
2013-10-09 07:18:00,50.1,49.8,30.28,NNE,17,0.0,0.0,99,0.00,CLR,,0.00,WeatherDisplay:10.37,2013-10-09 11:18:00,
2013-10-09 07:19:00,50.0,49.7,30.28,NNE,17,0.0,0.0,99,0.00,CLR,,0.00,WeatherDisplay:10.37,2013-10-09 11:19:00,
2013-10-09 07:20:00,50.2,49.9,30.28,NNE,17,0.0,0.0,99,0.00,CLR,,0.00,WeatherDisplay:10.37,2013-10-09 11:20:00,
2013-10-09 07:21:00,49.9,49.6,30.28,NNE,17,0.0,0.0,99,0.00,CLR,,0.00,WeatherDisplay:10.37,2013-10-09 11:21:00,
2013-10-09 07:23:00,50.0,49.7,30.28,NNE,17,0.0,0.0,99,0.00,CLR,,0.00,WeatherDisplay:10.37,2013-10-09 11:23:00,
2013-10-09 07:24:00,50.2,49.7,30.28,NNE,17,0.0,0.0,98,0.00,CLR,,0.00,WeatherDisplay:10.37,2013-10-09 11:24:00,
2013-10-09 07:25:00,50.1,49.8,30.28,NNE,17,0.0,0.0,99,0.00,CLR,,0.00,WeatherDisplay:10.37,2013-10-09 11:25:00,
2013-10-09 07:26:00,49.9,49.6,30.29,NNE,17,0.0,0.0,99,0.00,CLR,,0.00,WeatherDisplay:10.37,2013-10-09 11:26:00,
2013-10-09 07:29:00,50.4,50.1,30.29,NNE,17,0.0,0.0,99,0.00,CLR,,0.00,WeatherDisplay:10.37,2013-10-09 11:29:00,
2013-10-09 07:30:00,50.0,49.5,30.29,NNE,17,0.0,0.0,98,0.00,CLR,,0.00,WeatherDisplay:10.37,2013-10-09 11:30:00,
2013-10-09 07:31:00,50.1,49.6,30.29,NNE,17,0.0,0.0,98,0.00,CLR,,0.00,WeatherDisplay:10.37,2013-10-09 11:31:00,
2013-10-09 07:32:00,49.8,49.3,30.29,NNE,17,0.0,0.0,98,0.00,CLR,,0.00,WeatherDisplay:10.37,2013-10-09 11:32:00,
2013-10-09 07:34:00,50.2,49.7,30.29,NNE,17,0.0,0.0,98,0.00,CLR,,0.00,WeatherDisplay:10.37,2013-10-09 11:34:00,
2013-10-09 07:35:00,50.1,49.6,30.29,NNE,17,0.0,0.0,98,0.00,CLR,,0.00,WeatherDisplay:10.37,2013-10-09 11:35:00,
2013-10-09 07:36:00,50.0,49.5,30.29,NNE,17,0.0,0.0,98,0.00,CLR,,0.00,WeatherDisplay:10.37,2013-10-09 11:36:00,
2013-10-09 07:38:00,49.9,49.4,30.29,NNE,17,0.0,0.0,98,0.00,CLR,,0.00,WeatherDisplay:10.37,2013-10-09 11:38:00,
2013-10-09 07:39:00,50.1,49.6,30.29,NNE,17,0.0,0.0,98,0.00,CLR,,0.00,WeatherDisplay:10.37,2013-10-09 11:39:00,
2013-10-09 07:40:00,50.0,49.5,30.29,NNE,17,0.0,0.0,98,0.00,CLR,,0.00,WeatherDisplay:10.37,2013-10-09 11:40:00,
2013-10-09 07:41:00,50.2,49.7,30.29,NNE,17,0.0,0.0,98,0.00,CLR,,0.00,WeatherDisplay:10.37,2013-10-09 11:41:00,
2013-10-09 07:43:00,49.9,49.4,30.30,NNE,17,0.0,0.0,98,0.00,CLR,,0.00,WeatherDisplay:10.37,2013-10-09 11:43:00,
2013-10-09 07:44:00,50.1,49.6,30.30,NNE,17,0.0,0.0,98,0.00,CLR,,0.00,WeatherDisplay:10.37,2013-10-09 11:44:00,
2013-10-09 07:45:00,49.9,49.4,30.30,NNE,17,0.0,0.0,98,0.00,CLR,,0.00,WeatherDisplay:10.37,2013-10-09 11:45:00,
2013-10-09 07:46:00,50.7,50.2,30.30,NNE,17,0.0,0.0,98,0.00,CLR,,0.00,WeatherDisplay:10.37,2013-10-09 11:46:00,
2013-10-09 07:49:00,50.2,49.7,30.30,NNE,17,0.0,0.0,98,0.00,CLR,,0.00,WeatherDisplay:10.37,2013-10-09 11:49:00,
2013-10-09 07:50:00,50.3,49.8,30.30,NNE,17,0.0,0.0,98,0.00,CLR,,0.00,WeatherDisplay:10.37,2013-10-09 11:50:00,
2013-10-09 07:51:00,50.1,49.6,30.30,NNE,17,0.0,0.0,98,0.00,CLR,,0.00,WeatherDisplay:10.37,2013-10-09 11:51:00,
2013-10-09 07:54:00,50.6,50.1,30.30,NNE,17,0.0,0.0,98,0.00,CLR,,0.00,WeatherDisplay:10.37,2013-10-09 11:54:00,
2013-10-09 07:55:00,50.4,49.9,30.30,NNE,17,0.0,0.0,98,0.00,CLR,,0.00,WeatherDisplay:10.37,2013-10-09 11:55:00,
2013-10-09 07:56:00,50.0,49.5,30.30,NNE,17,0.0,0.0,98,0.00,CLR,,0.00,WeatherDisplay:10.37,2013-10-09 11:56:00,
2013-10-09 07:59:00,49.9,49.4,30.30,NNE,17,0.0,0.0,98,0.00,CLR,,0.00,WeatherDisplay:10.37,2013-10-09 11:59:00,
2013-10-09 08:00:00,50.1,49.6,30.30,NNE,17,0.0,0.0,98,0.00,CLR,,0.00,WeatherDisplay:10.37,2013-10-09 12:00:00,
2013-10-09 08:01:00,50.2,49.7,30.30,NNE,17,0.0,0.0,98,0.00,CLR,,0.00,WeatherDisplay:10.37,2013-10-09 12:01:00,
2013-10-09 08:03:00,50.1,49.6,30.30,NNE,17,0.0,0.0,98,0.00,CLR,,0.00,WeatherDisplay:10.37,2013-10-09 12:03:00,
2013-10-09 08:05:00,50.3,49.8,30.30,NNE,17,0.0,0.0,98,0.00,CLR,,0.00,WeatherDisplay:10.37,2013-10-09 12:05:00,
2013-10-09 08:06:00,50.2,49.7,30.30,NNE,17,0.0,0.0,98,0.00,CLR,,0.00,WeatherDisplay:10.37,2013-10-09 12:06:00,
2013-10-09 08:07:00,50.0,49.5,30.30,NNE,17,0.0,0.0,98,0.00,CLR,,0.00,WeatherDisplay:10.37,2013-10-09 12:07:00,
2013-10-09 08:08:00,50.2,49.7,30.30,NNE,17,0.0,0.0,98,0.00,CLR,,0.00,WeatherDisplay:10.37,2013-10-09 12:08:00,
2013-10-09 08:10:00,50.2,49.7,30.30,NNE,17,0.0,0.0,98,0.00,CLR,,0.00,WeatherDisplay:10.37,2013-10-09 12:10:00,
2013-10-09 08:11:00,50.4,49.9,30.30,NNE,17,0.0,0.0,98,0.00,CLR,,0.00,WeatherDisplay:10.37,2013-10-09 12:11:00,
2013-10-09 08:13:00,50.2,49.7,30.30,NNE,17,0.0,0.0,98,0.00,CLR,,0.00,WeatherDisplay:10.37,2013-10-09 12:13:00,
2013-10-09 08:15:00,50.0,49.5,30.30,NNE,17,0.0,0.0,98,0.00,CLR,,0.00,WeatherDisplay:10.37,2013-10-09 12:15:00,
2013-10-09 08:16:00,49.8,49.3,30.30,NNE,17,0.0,0.0,98,0.00,CLR,,0.00,WeatherDisplay:10.37,2013-10-09 12:16:00,
2013-10-09 08:17:00,50.0,49.5,30.30,NNE,17,0.0,0.0,98,0.00,CLR,,0.00,WeatherDisplay:10.37,2013-10-09 12:17:00,
2013-10-09 08:18:00,50.0,49.5,30.30,NNE,17,0.0,0.0,98,0.00,CLR,,0.00,WeatherDisplay:10.37,2013-10-09 12:18:00,
2013-10-09 08:20:00,49.9,49.6,30.30,NNE,17,0.0,0.0,99,0.00,CLR,,0.00,WeatherDisplay:10.37,2013-10-09 12:20:00,
2013-10-09 08:21:00,50.3,50.0,30.30,NNE,17,0.0,0.0,99,0.00,CLR,,0.00,WeatherDisplay:10.37,2013-10-09 12:21:00,
2013-10-09 08:22:00,50.3,50.0,30.30,NNE,17,0.0,0.0,99,0.00,CLR,,0.00,WeatherDisplay:10.37,2013-10-09 12:22:00,
2013-10-09 08:23:00,50.3,50.0,30.30,NNE,17,0.0,0.0,99,0.00,CLR,,0.00,WeatherDisplay:10.37,2013-10-09 12:23:00,
2013-10-09 08:25:00,50.3,50.0,30.30,NNE,17,0.0,0.0,99,0.00,CLR,,0.00,WeatherDisplay:10.37,2013-10-09 12:25:00,
2013-10-09 08:26:00,50.0,49.7,30.30,NNE,17,0.0,0.0,99,0.00,CLR,,0.00,WeatherDisplay:10.37,2013-10-09 12:26:00,
2013-10-09 08:28:00,50.4,49.9,30.31,NNE,17,0.0,0.0,98,0.00,CLR,,0.00,WeatherDisplay:10.37,2013-10-09 12:28:00,
2013-10-09 08:30:00,50.5,50.0,30.31,NNE,17,0.0,0.0,98,0.00,CLR,,0.00,WeatherDisplay:10.37,2013-10-09 12:30:00,
2013-10-09 08:31:00,50.2,49.7,30.31,NNE,17,0.0,0.0,98,0.00,CLR,,0.00,WeatherDisplay:10.37,2013-10-09 12:31:00,
2013-10-09 08:32:00,50.2,49.7,30.31,NNE,17,0.0,0.0,98,0.00,CLR,,0.00,WeatherDisplay:10.37,2013-10-09 12:32:00,
2013-10-09 08:33:00,50.6,50.1,30.31,NNE,17,0.0,0.0,98,0.00,CLR,,0.00,WeatherDisplay:10.37,2013-10-09 12:33:00,
2013-10-09 08:35:00,50.6,50.1,30.31,NNE,17,0.0,0.0,98,0.00,CLR,,0.00,WeatherDisplay:10.37,2013-10-09 12:35:00,
2013-10-09 08:36:00,50.1,49.6,30.31,NNE,17,0.0,0.0,98,0.00,CLR,,0.00,WeatherDisplay:10.37,2013-10-09 12:36:00,
2013-10-09 08:38:00,50.0,49.5,30.31,NNE,17,0.0,0.0,98,0.00,CLR,,0.00,WeatherDisplay:10.37,2013-10-09 12:38:00,
2013-10-09 08:40:00,50.4,49.9,30.31,NNE,17,0.0,0.0,98,0.00,CLR,,0.00,WeatherDisplay:10.37,2013-10-09 12:40:00,
2013-10-09 08:41:00,51.0,50.5,30.31,NNE,17,0.0,0.0,98,0.00,CLR,,0.00,WeatherDisplay:10.37,2013-10-09 12:41:00,
2013-10-09 08:42:00,50.7,50.2,30.31,NNE,17,0.0,0.0,98,0.00,CLR,,0.00,WeatherDisplay:10.37,2013-10-09 12:42:00,
2013-10-09 08:43:00,50.8,50.0,30.31,NNE,17,0.0,0.0,97,0.00,CLR,,0.00,WeatherDisplay:10.37,2013-10-09 12:43:00,
2013-10-09 08:44:00,50.2,49.4,30.31,NNE,17,0.0,0.0,97,0.00,CLR,,0.00,WeatherDisplay:10.37,2013-10-09 12:44:00,
2013-10-09 08:46:00,50.9,49.8,30.31,NNE,17,0.0,0.0,96,0.00,CLR,,0.00,WeatherDisplay:10.37,2013-10-09 12:46:00,
2013-10-09 08:47:00,50.9,49.8,30.31,NNE,17,0.0,0.0,96,0.00,CLR,,0.00,WeatherDisplay:10.37,2013-10-09 12:47:00,
2013-10-09 08:48:00,50.6,49.5,30.31,NNE,17,0.0,0.0,96,0.00,CLR,,0.00,WeatherDisplay:10.37,2013-10-09 12:48:00,
2013-10-09 08:49:00,50.4,49.3,30.31,NNE,17,0.0,0.0,96,0.00,CLR,,0.00,WeatherDisplay:10.37,2013-10-09 12:49:00,
2013-10-09 08:51:00,51.2,50.1,30.31,NNE,17,0.0,0.0,96,0.00,CLR,,0.00,WeatherDisplay:10.37,2013-10-09 12:51:00,
2013-10-09 08:52:00,51.1,50.0,30.31,NNE,17,0.0,0.0,96,0.00,CLR,,0.00,WeatherDisplay:10.37,2013-10-09 12:52:00,
2013-10-09 08:54:00,50.6,49.5,30.31,NNE,17,0.0,0.0,96,0.00,CLR,,0.00,WeatherDisplay:10.37,2013-10-09 12:54:00,
2013-10-09 08:56:00,51.0,49.9,30.31,NNE,17,0.0,0.0,96,0.00,CLR,,0.00,WeatherDisplay:10.37,2013-10-09 12:56:00,
2013-10-09 08:58:00,51.1,49.7,30.31,NNE,17,0.0,0.0,95,0.00,CLR,,0.00,WeatherDisplay:10.37,2013-10-09 12:58:00,
2013-10-09 08:59:00,51.0,49.6,30.31,NNE,17,0.0,0.0,95,0.00,CLR,,0.00,WeatherDisplay:10.37,2013-10-09 12:59:00,
2013-10-09 09:00:00,51.1,49.7,30.31,NNE,17,0.0,0.0,95,0.00,CLR,,0.00,WeatherDisplay:10.37,2013-10-09 13:00:00,
2013-10-09 09:01:00,50.5,49.4,30.31,NNE,17,0.0,0.0,96,0.00,CLR,,0.00,WeatherDisplay:10.37,2013-10-09 13:01:00,
2013-10-09 09:02:00,51.1,50.0,30.31,NNE,17,0.0,0.0,96,0.00,CLR,,0.00,WeatherDisplay:10.37,2013-10-09 13:02:00,
2013-10-09 09:03:00,50.4,49.0,30.31,NNE,17,0.0,0.0,95,0.00,CLR,,0.00,WeatherDisplay:10.37,2013-10-09 13:03:00,
2013-10-09 09:04:00,50.9,49.5,30.31,NNE,17,0.0,0.0,95,0.00,CLR,,0.00,WeatherDisplay:10.37,2013-10-09 13:04:00,
2013-10-09 09:05:00,51.2,49.8,30.31,NNE,17,0.0,0.0,95,0.00,CLR,,0.00,WeatherDisplay:10.37,2013-10-09 13:05:00,
2013-10-09 09:06:00,51.4,49.7,30.31,WNW,295,0.2,5.5,94,0.00,CLR,,0.00,WeatherDisplay:10.37,2013-10-09 13:06:00,
2013-10-09 09:07:00,51.0,49.3,30.31,NW,311,1.4,5.8,94,0.00,CLR,,0.00,WeatherDisplay:10.37,2013-10-09 13:07:00,
2013-10-09 09:09:00,50.9,49.2,30.31,NNW,337,0.0,3.5,94,0.00,CLR,,0.00,WeatherDisplay:10.37,2013-10-09 13:09:00,
2013-10-09 09:10:00,50.9,49.2,30.31,NNW,337,0.0,3.5,94,0.00,CLR,,0.00,WeatherDisplay:10.37,2013-10-09 13:10:00,
2013-10-09 09:11:00,50.9,49.2,30.31,NNW,337,0.0,0.0,94,0.00,CLR,,0.00,WeatherDisplay:10.37,2013-10-09 13:11:00,
2013-10-09 09:12:00,51.5,49.8,30.31,NNW,337,0.0,0.0,94,0.00,CLR,,0.00,WeatherDisplay:10.37,2013-10-09 13:12:00,
2013-10-09 09:14:00,51.4,49.7,30.31,NNW,337,0.0,0.0,94,0.00,CLR,,0.00,WeatherDisplay:10.37,2013-10-09 13:14:00,
2013-10-09 09:15:00,51.5,49.8,30.31,NNW,337,0.0,0.0,94,0.00,CLR,,0.00,WeatherDisplay:10.37,2013-10-09 13:15:00,
2013-10-09 09:16:00,51.2,49.2,30.31,NNW,337,0.0,0.0,93,0.00,CLR,,0.00,WeatherDisplay:10.37,2013-10-09 13:16:00,
2013-10-09 09:18:00,51.0,48.8,30.31,NNW,337,0.0,0.0,92,0.00,CLR,,0.00,WeatherDisplay:10.37,2013-10-09 13:18:00,
2013-10-09 09:20:00,51.2,48.7,30.31,NW,312,3.4,6.9,91,0.00,CLR,,0.00,WeatherDisplay:10.37,2013-10-09 13:20:00,
2013-10-09 09:21:00,51.0,48.5,30.31,NW,306,4.4,5.8,91,0.00,CLR,,0.00,WeatherDisplay:10.37,2013-10-09 13:21:00,
2013-10-09 09:23:00,52.0,49.2,30.31,North,352,1.6,4.6,90,0.00,CLR,,0.00,WeatherDisplay:10.37,2013-10-09 13:23:00,
2013-10-09 09:25:00,51.1,48.6,30.31,North,352,0.0,0.0,91,0.00,CLR,,0.00,WeatherDisplay:10.37,2013-10-09 13:25:00,
2013-10-09 09:26:00,52.8,50.2,30.32,North,352,0.0,0.0,91,0.00,CLR,,0.00,WeatherDisplay:10.37,2013-10-09 13:26:00,
2013-10-09 09:28:00,52.0,49.2,30.32,NNW,347,0.0,0.0,90,0.00,CLR,,0.00,WeatherDisplay:10.37,2013-10-09 13:28:00,
2013-10-09 09:30:00,52.2,49.4,30.32,NNW,347,0.0,0.0,90,0.00,CLR,,0.00,WeatherDisplay:10.37,2013-10-09 13:30:00,
2013-10-09 09:31:00,52.1,49.3,30.32,NNW,347,0.0,0.0,90,0.00,CLR,,0.00,WeatherDisplay:10.37,2013-10-09 13:31:00,
2013-10-09 09:32:00,52.1,49.3,30.32,NNW,347,0.0,0.0,90,0.00,CLR,,0.00,WeatherDisplay:10.37,2013-10-09 13:32:00,
2013-10-09 09:33:00,53.0,49.8,30.32,NNW,347,0.0,0.0,89,0.00,CLR,,0.00,WeatherDisplay:10.37,2013-10-09 13:33:00,
2013-10-09 09:35:00,52.3,49.2,30.32,NW,316,0.0,4.6,89,0.00,CLR,,0.00,WeatherDisplay:10.37,2013-10-09 13:35:00,
2013-10-09 09:36:00,52.1,49.0,30.32,NW,316,0.0,0.0,89,0.00,CLR,,0.00,WeatherDisplay:10.37,2013-10-09 13:36:00,
2013-10-09 09:37:00,52.1,49.0,30.32,NW,316,0.0,0.0,89,0.00,CLR,,0.00,WeatherDisplay:10.37,2013-10-09 13:37:00,
2013-10-09 09:38:00,52.4,49.3,30.32,NW,316,0.0,0.0,89,0.00,CLR,,0.00,WeatherDisplay:10.37,2013-10-09 13:38:00,
2013-10-09 09:40:00,53.0,49.5,30.32,NW,316,0.0,0.0,88,0.00,CLR,,0.00,WeatherDisplay:10.37,2013-10-09 13:40:00,
2013-10-09 09:42:00,53.4,49.9,30.32,NW,316,0.0,0.0,88,0.00,CLR,,0.00,WeatherDisplay:10.37,2013-10-09 13:42:00,
2013-10-09 09:44:00,53.3,49.8,30.32,NW,316,0.0,0.0,88,0.00,CLR,,0.00,WeatherDisplay:10.37,2013-10-09 13:44:00,
2013-10-09 09:45:00,53.5,49.1,30.32,North,360,4.0,6.9,85,0.00,CLR,,0.00,WeatherDisplay:10.37,2013-10-09 13:45:00,
2013-10-09 09:46:00,53.3,49.2,30.32,North,7,3.1,5.8,86,0.00,CLR,,0.00,WeatherDisplay:10.37,2013-10-09 13:46:00,
2013-10-09 09:47:00,53.1,49.0,30.32,North,7,0.1,3.5,86,0.00,CLR,,0.00,WeatherDisplay:10.37,2013-10-09 13:47:00,
2013-10-09 09:49:00,53.6,49.5,30.32,WNW,294,0.5,3.5,86,0.00,CLR,,0.00,WeatherDisplay:10.37,2013-10-09 13:49:00,
2013-10-09 09:51:00,54.7,50.6,30.32,North,352,1.4,0.0,86,0.00,CLR,,0.00,WeatherDisplay:10.37,2013-10-09 13:51:00,
2013-10-09 09:52:00,54.4,49.7,30.32,NNW,337,2.7,6.0,84,0.00,CLR,,0.00,WeatherDisplay:10.37,2013-10-09 13:52:00,
2013-10-09 09:56:00,54.5,48.8,30.32,WNW,301,0.0,3.5,81,0.00,CLR,,0.00,WeatherDisplay:10.37,2013-10-09 13:56:00,
2013-10-09 09:57:00,54.9,49.2,30.32,WNW,301,0.0,0.0,81,0.00,CLR,,0.00,WeatherDisplay:10.37,2013-10-09 13:57:00,
2013-10-09 09:58:00,54.9,49.2,30.32,WNW,301,0.0,0.0,81,0.00,CLR,,0.00,WeatherDisplay:10.37,2013-10-09 13:58:00,
2013-10-09 10:01:00,55.0,48.6,30.32,North,354,1.2,8.1,79,0.00,CLR,,0.00,WeatherDisplay:10.37,2013-10-09 14:01:00,
2013-10-09 10:02:00,54.0,47.6,30.32,North,354,0.0,0.0,79,0.00,CLR,,0.00,WeatherDisplay:10.37,2013-10-09 14:02:00,
2013-10-09 10:03:00,54.8,48.7,30.32,North,354,0.0,0.0,80,0.00,CLR,,0.00,WeatherDisplay:10.37,2013-10-09 14:03:00,
2013-10-09 10:06:00,54.8,47.0,30.32,WNW,295,5.8,10.4,75,0.00,CLR,,0.00,WeatherDisplay:10.37,2013-10-09 14:06:00,
2013-10-09 10:07:00,55.1,47.3,30.32,NNW,346,1.1,7.1,75,0.00,CLR,,0.00,WeatherDisplay:10.37,2013-10-09 14:07:00,
2013-10-09 10:08:00,54.4,46.3,30.32,NNE,24,3.5,8.1,74,0.00,CLR,,0.00,WeatherDisplay:10.37,2013-10-09 14:08:00,
2013-10-09 10:11:00,55.2,47.4,30.32,NNW,329,0.0,0.0,75,0.00,CLR,,0.00,WeatherDisplay:10.37,2013-10-09 14:11:00,
2013-10-09 10:12:00,56.3,48.5,30.32,North,7,0.1,5.4,75,0.00,CLR,,0.00,WeatherDisplay:10.37,2013-10-09 14:12:00,
2013-10-09 10:13:00,56.9,49.1,30.32,NNW,329,0.4,5.8,75,0.00,CLR,,0.00,WeatherDisplay:10.37,2013-10-09 14:13:00,
2013-10-09 10:16:00,56.5,47.9,30.32,North,4,4.9,8.1,73,0.00,CLR,,0.00,WeatherDisplay:10.37,2013-10-09 14:16:00,
2013-10-09 10:17:00,56.9,48.3,30.32,NNW,335,4.0,6.9,73,0.00,CLR,,0.00,WeatherDisplay:10.37,2013-10-09 14:17:00,
2013-10-09 10:18:00,57.3,48.7,30.32,NNW,335,1.9,4.6,73,0.00,CLR,,0.00,WeatherDisplay:10.37,2013-10-09 14:18:00,
2013-10-09 10:19:00,57.2,49.0,30.32,NW,316,1.2,3.4,74,0.00,CLR,,0.00,WeatherDisplay:10.37,2013-10-09 14:19:00,
2013-10-09 10:21:00,57.3,48.7,30.32,NW,313,3.4,8.1,73,0.00,CLR,,0.00,WeatherDisplay:10.37,2013-10-09 14:21:00,
2013-10-09 10:23:00,56.8,47.9,30.32,North,10,5.1,6.9,72,0.00,CLR,,0.00,WeatherDisplay:10.37,2013-10-09 14:23:00,
2013-10-09 10:25:00,57.6,48.3,30.32,North,0,0.0,0.0,71,0.00,CLR,,0.00,WeatherDisplay:10.37,2013-10-09 14:25:00,
2013-10-09 10:27:00,57.2,48.3,30.32,WNW,289,1.5,2.5,72,0.00,CLR,,0.00,WeatherDisplay:10.37,2013-10-09 14:27:00,
2013-10-09 10:28:00,58.0,49.0,30.32,WNW,289,1.2,4.6,72,0.00,CLR,,0.00,WeatherDisplay:10.37,2013-10-09 14:28:00,
2013-10-09 10:30:00,58.5,49.5,30.32,WNW,289,0.0,0.0,72,0.00,CLR,,0.00,WeatherDisplay:10.37,2013-10-09 14:30:00,
2013-10-09 10:32:00,58.3,48.9,30.32,NNW,346,2.0,6.9,71,0.00,CLR,,0.00,WeatherDisplay:10.37,2013-10-09 14:32:00,
2013-10-09 10:33:00,58.0,48.6,30.32,NNW,346,0.0,2.3,71,0.00,CLR,,0.00,WeatherDisplay:10.37,2013-10-09 14:33:00,
2013-10-09 10:35:00,57.5,48.5,30.31,NNW,346,0.0,0.0,72,0.00,CLR,,0.00,WeatherDisplay:10.37,2013-10-09 14:35:00,
2013-10-09 10:37:00,58.8,49.8,30.31,NNW,336,5.1,5.8,72,0.00,CLR,,0.00,WeatherDisplay:10.37,2013-10-09 14:37:00,
2013-10-09 10:38:00,59.0,49.6,30.31,NNW,336,1.9,9.2,71,0.00,CLR,,0.00,WeatherDisplay:10.37,2013-10-09 14:38:00,
2013-10-09 10:40:00,58.1,48.7,30.31,North,0,1.1,5.5,71,0.00,CLR,,0.00,WeatherDisplay:10.37,2013-10-09 14:40:00,
2013-10-09 10:43:00,59.4,50.4,30.31,North,360,0.0,0.0,72,0.00,CLR,,0.00,WeatherDisplay:10.37,2013-10-09 14:43:00,
2013-10-09 10:44:00,58.9,49.9,30.31,North,360,0.0,0.0,72,0.00,CLR,,0.00,WeatherDisplay:10.37,2013-10-09 14:44:00,
2013-10-09 10:45:00,59.5,50.1,30.31,North,360,0.0,0.0,71,0.00,CLR,,0.00,WeatherDisplay:10.37,2013-10-09 14:45:00,
2013-10-09 10:46:00,59.6,50.2,30.31,NNW,340,1.9,8.1,71,0.00,CLR,,0.00,WeatherDisplay:10.37,2013-10-09 14:46:00,
2013-10-09 10:48:00,59.9,50.8,30.31,North,360,4.4,9.2,72,0.00,CLR,,0.00,WeatherDisplay:10.37,2013-10-09 14:48:00,
2013-10-09 10:49:00,59.7,50.7,30.31,NNW,339,5.3,9.2,72,0.00,CLR,,0.00,WeatherDisplay:10.37,2013-10-09 14:49:00,
2013-10-09 10:50:00,59.6,48.6,30.31,NW,325,7.1,7.1,67,0.00,CLR,,0.00,WeatherDisplay:10.37,2013-10-09 14:50:00,
2013-10-09 10:51:00,59.5,49.3,30.31,WNW,301,4.5,12.7,69,0.00,CLR,,0.00,WeatherDisplay:10.37,2013-10-09 14:51:00,
2013-10-09 10:54:00,60.1,49.9,30.31,NW,320,2.7,8.1,69,0.00,CLR,,0.00,WeatherDisplay:10.37,2013-10-09 14:54:00,
2013-10-09 10:56:00,60.4,48.6,30.32,North,360,4.9,8.1,65,0.00,CLR,,0.00,WeatherDisplay:10.37,2013-10-09 14:56:00,
2013-10-09 10:57:00,60.3,48.5,30.32,North,349,4.2,6.9,65,0.00,CLR,,0.00,WeatherDisplay:10.37,2013-10-09 14:57:00,
2013-10-09 10:59:00,60.6,49.2,30.32,NNW,336,1.5,6.5,66,0.00,CLR,,0.00,WeatherDisplay:10.37,2013-10-09 14:59:00,
2013-10-09 11:00:00,60.4,48.2,30.32,NW,318,6.4,11.5,64,0.00,CLR,,0.00,WeatherDisplay:10.37,2013-10-09 15:00:00,
2013-10-09 11:01:00,60.4,49.0,30.32,NNW,347,4.3,6.9,66,0.00,CLR,,0.00,WeatherDisplay:10.37,2013-10-09 15:01:00,
2013-10-09 11:03:00,61.4,49.9,30.32,North,6,6.2,11.5,66,0.00,CLR,,0.00,WeatherDisplay:10.37,2013-10-09 15:03:00,
2013-10-09 11:04:00,61.3,49.8,30.32,North,354,4.1,15.0,66,0.00,CLR,,0.00,WeatherDisplay:10.37,2013-10-09 15:04:00,
2013-10-09 11:05:00,61.6,49.3,30.32,NNW,343,3.7,7.5,64,0.00,CLR,,0.00,WeatherDisplay:10.37,2013-10-09 15:05:00,
2013-10-09 11:06:00,61.6,49.3,30.32,North,353,6.5,8.1,64,0.00,CLR,,0.00,WeatherDisplay:10.37,2013-10-09 15:06:00,
2013-10-09 11:08:00,61.5,48.8,30.32,NNW,332,7.3,10.4,63,0.00,CLR,,0.00,WeatherDisplay:10.37,2013-10-09 15:08:00,
2013-10-09 11:09:00,61.8,49.5,30.32,North,6,4.9,9.6,64,0.00,CLR,,0.00,WeatherDisplay:10.37,2013-10-09 15:09:00,
2013-10-09 11:10:00,61.6,49.3,30.32,North,8,6.2,9.2,64,0.00,CLR,,0.00,WeatherDisplay:10.37,2013-10-09 15:10:00,
2013-10-09 11:12:00,61.6,48.4,30.32,North,360,4.8,6.9,62,0.00,CLR,,0.00,WeatherDisplay:10.37,2013-10-09 15:12:00,
2013-10-09 11:13:00,62.3,50.0,30.32,NW,323,0.6,5.8,64,0.00,CLR,,0.00,WeatherDisplay:10.37,2013-10-09 15:13:00,
2013-10-09 11:14:00,62.3,49.5,30.31,North,7,1.2,8.1,63,0.00,CLR,,0.00,WeatherDisplay:10.37,2013-10-09 15:14:00,
2013-10-09 11:15:00,62.2,49.4,30.31,North,7,0.4,4.6,63,0.00,CLR,,0.00,WeatherDisplay:10.37,2013-10-09 15:15:00,
2013-10-09 11:17:00,62.9,50.1,30.31,North,359,6.8,13.8,63,0.00,CLR,,0.00,WeatherDisplay:10.37,2013-10-09 15:17:00,
2013-10-09 11:18:00,63.1,49.9,30.31,North,1,2.0,9.2,62,0.00,CLR,,0.00,WeatherDisplay:10.37,2013-10-09 15:18:00,
2013-10-09 11:20:00,63.1,49.0,30.31,North,360,3.0,6.9,60,0.00,CLR,,0.00,WeatherDisplay:10.37,2013-10-09 15:20:00,
2013-10-09 11:21:00,63.4,49.3,30.31,WNW,294,3.3,6.9,60,0.00,CLR,,0.00,WeatherDisplay:10.37,2013-10-09 15:21:00,
2013-10-09 11:22:00,63.6,49.9,30.31,NNE,21,2.3,5.8,61,0.00,CLR,,0.00,WeatherDisplay:10.37,2013-10-09 15:22:00,
2013-10-09 11:23:00,63.4,48.8,30.31,NNE,14,3.7,10.4,59,0.00,CLR,,0.00,WeatherDisplay:10.37,2013-10-09 15:23:00,
2013-10-09 11:25:00,63.5,48.5,30.31,North,360,5.9,9.2,58,0.00,CLR,,0.00,WeatherDisplay:10.37,2013-10-09 15:25:00,
2013-10-09 11:26:00,63.8,48.7,30.31,North,4,3.8,9.2,58,0.00,CLR,,0.00,WeatherDisplay:10.37,2013-10-09 15:26:00,
2013-10-09 11:27:00,64.1,49.0,30.31,NNW,328,2.9,5.8,58,0.00,CLR,,0.00,WeatherDisplay:10.37,2013-10-09 15:27:00,
2013-10-09 11:28:00,63.8,48.3,30.31,North,10,4.2,8.4,57,0.00,CLR,,0.00,WeatherDisplay:10.37,2013-10-09 15:28:00,
2013-10-09 11:30:00,64.0,48.5,30.31,North,360,4.9,6.9,57,0.00,CLR,,0.00,WeatherDisplay:10.37,2013-10-09 15:30:00,
2013-10-09 11:31:00,64.1,48.5,30.31,NNE,18,4.6,9.2,57,0.00,CLR,,0.00,WeatherDisplay:10.37,2013-10-09 15:31:00,
2013-10-09 11:32:00,63.7,48.6,30.31,NE,38,3.5,12.7,58,0.00,CLR,,0.00,WeatherDisplay:10.37,2013-10-09 15:32:00,
2013-10-09 11:34:00,63.9,48.8,30.31,North,350,2.3,4.7,58,0.00,CLR,,0.00,WeatherDisplay:10.37,2013-10-09 15:34:00,
2013-10-09 11:35:00,63.8,48.3,30.31,NNW,346,4.7,6.5,57,0.00,CLR,,0.00,WeatherDisplay:10.37,2013-10-09 15:35:00,
2013-10-09 11:36:00,63.9,48.4,30.31,North,360,5.0,5.9,57,0.00,CLR,,0.00,WeatherDisplay:10.37,2013-10-09 15:36:00,
2013-10-09 11:37:00,64.0,48.9,30.31,North,1,1.4,9.2,58,0.00,CLR,,0.00,WeatherDisplay:10.37,2013-10-09 15:37:00,
2013-10-09 11:39:00,64.0,48.9,30.31,North,3,4.7,6.1,58,0.00,CLR,,0.00,WeatherDisplay:10.37,2013-10-09 15:39:00,
2013-10-09 11:41:00,63.6,48.5,30.31,North,4,6.5,9.4,58,0.00,CLR,,0.00,WeatherDisplay:10.37,2013-10-09 15:41:00,
2013-10-09 11:42:00,63.3,47.8,30.31,NNE,16,5.1,9.2,57,0.00,CLR,,0.00,WeatherDisplay:10.37,2013-10-09 15:42:00,
2013-10-09 11:44:00,63.5,48.9,30.31,North,350,2.1,7.0,59,0.00,CLR,,0.00,WeatherDisplay:10.37,2013-10-09 15:44:00,
2013-10-09 11:46:00,63.3,48.3,30.31,North,3,2.1,9.2,58,0.00,CLR,,0.00,WeatherDisplay:10.37,2013-10-09 15:46:00,
2013-10-09 11:47:00,63.4,48.8,30.31,NNE,14,2.1,6.9,59,0.00,CLR,,0.00,WeatherDisplay:10.37,2013-10-09 15:47:00,
2013-10-09 11:49:00,63.0,48.4,30.31,NNE,13,2.7,5.0,59,0.00,CLR,,0.00,WeatherDisplay:10.37,2013-10-09 15:49:00,
2013-10-09 11:51:00,63.4,48.8,30.31,North,4,3.9,8.5,59,0.00,CLR,,0.00,WeatherDisplay:10.37,2013-10-09 15:51:00,
2013-10-09 11:53:00,63.4,48.4,30.31,North,352,3.1,8.1,58,0.00,CLR,,0.00,WeatherDisplay:10.37,2013-10-09 15:53:00,
2013-10-09 11:54:00,63.5,48.9,30.31,North,360,3.1,6.3,59,0.00,CLR,,0.00,WeatherDisplay:10.37,2013-10-09 15:54:00,
2013-10-09 11:56:00,63.5,48.0,30.31,North,360,6.6,10.4,57,0.00,CLR,,0.00,WeatherDisplay:10.37,2013-10-09 15:56:00,
2013-10-09 11:58:00,63.6,47.6,30.31,North,360,5.6,9.2,56,0.00,CLR,,0.00,WeatherDisplay:10.37,2013-10-09 15:58:00,
2013-10-09 11:59:00,63.4,47.4,30.31,North,360,6.6,9.2,56,0.00,CLR,,0.00,WeatherDisplay:10.37,2013-10-09 15:59:00,
2013-10-09 12:01:00,63.2,48.2,30.31,NW,318,6.1,10.4,58,0.00,CLR,,0.00,WeatherDisplay:10.37,2013-10-09 16:01:00,
2013-10-09 12:02:00,63.5,48.5,30.31,North,360,5.5,10.4,58,0.00,CLR,,0.00,WeatherDisplay:10.37,2013-10-09 16:02:00,
2013-10-09 12:03:00,63.5,48.5,30.31,North,10,5.0,8.1,58,0.00,CLR,,0.00,WeatherDisplay:10.37,2013-10-09 16:03:00,
2013-10-09 12:05:00,63.4,47.9,30.30,NNE,23,4.9,8.5,57,0.00,CLR,,0.00,WeatherDisplay:10.37,2013-10-09 16:05:00,
2013-10-09 12:06:00,63.6,48.1,30.30,North,7,3.3,9.2,57,0.00,CLR,,0.00,WeatherDisplay:10.37,2013-10-09 16:06:00,
2013-10-09 12:07:00,63.5,48.5,30.30,North,7,1.3,5.8,58,0.00,CLR,,0.00,WeatherDisplay:10.37,2013-10-09 16:07:00,
2013-10-09 12:08:00,64.0,48.9,30.30,North,7,0.0,0.0,58,0.00,CLR,,0.00,WeatherDisplay:10.37,2013-10-09 16:08:00,
2013-10-09 12:10:00,64.3,48.7,30.30,North,7,0.4,3.5,57,0.00,CLR,,0.00,WeatherDisplay:10.37,2013-10-09 16:10:00,
2013-10-09 12:11:00,64.7,48.6,30.30,NNW,347,2.2,6.9,56,0.00,CLR,,0.00,WeatherDisplay:10.37,2013-10-09 16:11:00,
2013-10-09 12:12:00,64.3,48.3,30.30,North,360,2.6,6.9,56,0.00,CLR,,0.00,WeatherDisplay:10.37,2013-10-09 16:12:00,
2013-10-09 12:14:00,64.4,48.8,30.30,NW,315,7.7,10.3,57,0.00,CLR,,0.00,WeatherDisplay:10.37,2013-10-09 16:14:00,
2013-10-09 12:15:00,64.9,49.3,30.30,North,360,0.1,10.4,57,0.00,CLR,,0.00,WeatherDisplay:10.37,2013-10-09 16:15:00,
2013-10-09 12:17:00,64.7,48.2,30.30,North,360,4.6,8.2,55,0.00,CLR,,0.00,WeatherDisplay:10.37,2013-10-09 16:17:00,
2013-10-09 12:19:00,64.9,49.3,30.30,North,360,0.0,0.0,57,0.00,CLR,,0.00,WeatherDisplay:10.37,2013-10-09 16:19:00,
2013-10-09 12:21:00,65.1,49.5,30.30,North,360,0.0,0.0,57,0.00,CLR,,0.00,WeatherDisplay:10.37,2013-10-09 16:21:00,
2013-10-09 12:22:00,65.0,48.9,30.30,NNE,25,3.0,6.9,56,0.00,CLR,,0.00,WeatherDisplay:10.37,2013-10-09 16:22:00,
2013-10-09 12:24:00,65.1,49.0,30.30,NNW,343,4.8,12.7,56,0.00,CLR,,0.00,WeatherDisplay:10.37,2013-10-09 16:24:00,
2013-10-09 12:25:00,65.2,49.6,30.30,NW,319,4.2,10.4,57,0.00,CLR,,0.00,WeatherDisplay:10.37,2013-10-09 16:25:00,
2013-10-09 12:26:00,65.3,49.7,30.30,NNW,329,6.4,10.4,57,0.00,CLR,,0.00,WeatherDisplay:10.37,2013-10-09 16:26:00,
2013-10-09 12:27:00,65.6,49.0,30.30,North,349,5.8,7.7,55,0.00,CLR,,0.00,WeatherDisplay:10.37,2013-10-09 16:27:00,
2013-10-09 12:30:00,65.0,48.4,30.30,North,3,6.1,10.4,55,0.00,CLR,,0.00,WeatherDisplay:10.37,2013-10-09 16:30:00,
2013-10-09 12:31:00,65.3,49.2,30.30,North,7,4.3,9.2,56,0.00,CLR,,0.00,WeatherDisplay:10.37,2013-10-09 16:31:00,
2013-10-09 12:32:00,65.1,49.0,30.29,NW,320,2.6,8.1,56,0.00,CLR,,0.00,WeatherDisplay:10.37,2013-10-09 16:32:00,
2013-10-09 12:35:00,65.2,49.1,30.29,North,11,1.8,8.1,56,0.00,CLR,,0.00,WeatherDisplay:10.37,2013-10-09 16:35:00,
2013-10-09 12:36:00,65.4,49.3,30.29,NNW,346,5.1,5.1,56,0.00,CLR,,0.00,WeatherDisplay:10.37,2013-10-09 16:36:00,
2013-10-09 12:37:00,65.3,49.7,30.29,NNW,347,8.7,12.7,57,0.00,CLR,,0.00,WeatherDisplay:10.37,2013-10-09 16:37:00,
2013-10-09 12:40:00,64.9,49.8,30.29,NNW,344,5.0,11.5,58,0.00,CLR,,0.00,WeatherDisplay:10.37,2013-10-09 16:40:00,
2013-10-09 12:41:00,65.2,49.1,30.29,NW,315,4.6,5.8,56,0.00,CLR,,0.00,WeatherDisplay:10.37,2013-10-09 16:41:00,
2013-10-09 12:42:00,65.2,49.6,30.29,North,360,3.3,5.8,57,0.00,CLR,,0.00,WeatherDisplay:10.37,2013-10-09 16:42:00,
2013-10-09 12:43:00,65.5,49.4,30.29,NNE,24,3.6,5.8,56,0.00,CLR,,0.00,WeatherDisplay:10.37,2013-10-09 16:43:00,
2013-10-09 12:45:00,65.4,49.3,30.29,NW,320,5.1,6.9,56,0.00,CLR,,0.00,WeatherDisplay:10.37,2013-10-09 16:45:00,
2013-10-09 12:46:00,65.6,50.4,30.29,North,10,5.0,8.1,58,0.00,CLR,,0.00,WeatherDisplay:10.37,2013-10-09 16:46:00,
2013-10-09 12:47:00,65.7,50.0,30.29,North,350,2.1,8.1,57,0.00,CLR,,0.00,WeatherDisplay:10.37,2013-10-09 16:47:00,
2013-10-09 12:48:00,65.6,50.0,30.29,North,6,1.0,4.6,57,0.00,CLR,,0.00,WeatherDisplay:10.37,2013-10-09 16:48:00,
2013-10-09 12:49:00,66.0,50.8,30.29,North,6,0.0,4.6,58,0.00,CLR,,0.00,WeatherDisplay:10.37,2013-10-09 16:49:00,
2013-10-09 12:50:00,66.4,50.7,30.29,North,11,3.7,7.8,57,0.00,CLR,,0.00,WeatherDisplay:10.37,2013-10-09 16:50:00,
2013-10-09 12:51:00,66.4,49.7,30.29,North,352,4.9,8.1,55,0.00,CLR,,0.00,WeatherDisplay:10.37,2013-10-09 16:51:00,
2013-10-09 12:52:00,66.1,49.9,30.29,NNE,23,0.0,6.9,56,0.00,CLR,,0.00,WeatherDisplay:10.37,2013-10-09 16:52:00,
2013-10-09 12:53:00,66.1,49.9,30.29,NNE,23,0.0,0.0,56,0.00,CLR,,0.00,WeatherDisplay:10.37,2013-10-09 16:53:00,
2013-10-09 12:54:00,65.9,48.8,30.29,North,3,6.0,9.2,54,0.00,CLR,,0.00,WeatherDisplay:10.37,2013-10-09 16:54:00,
2013-10-09 12:56:00,66.2,50.0,30.29,North,360,5.8,9.4,56,0.00,CLR,,0.00,WeatherDisplay:10.37,2013-10-09 16:56:00,
2013-10-09 12:57:00,65.8,49.2,30.28,North,359,5.0,8.1,55,0.00,CLR,,0.00,WeatherDisplay:10.37,2013-10-09 16:57:00,
2013-10-09 12:58:00,65.7,49.6,30.28,NNW,336,5.9,8.1,56,0.00,CLR,,0.00,WeatherDisplay:10.37,2013-10-09 16:58:00,
2013-10-09 12:59:00,65.9,49.3,30.28,North,354,5.3,6.9,55,0.00,CLR,,0.00,WeatherDisplay:10.37,2013-10-09 16:59:00,
2013-10-09 13:01:00,65.2,48.6,30.29,West,277,5.9,9.2,55,0.00,CLR,,0.00,WeatherDisplay:10.37,2013-10-09 17:01:00,
2013-10-09 13:02:00,65.6,50.0,30.28,NNW,347,2.2,9.2,57,0.00,CLR,,0.00,WeatherDisplay:10.37,2013-10-09 17:02:00,
2013-10-09 13:03:00,65.6,50.0,30.28,North,349,6.0,9.9,57,0.00,CLR,,0.00,WeatherDisplay:10.37,2013-10-09 17:03:00,
2013-10-09 13:04:00,65.2,48.6,30.28,North,350,5.2,10.4,55,0.00,CLR,,0.00,WeatherDisplay:10.37,2013-10-09 17:04:00,
2013-10-09 13:06:00,65.6,49.5,30.28,North,4,5.4,9.2,56,0.00,CLR,,0.00,WeatherDisplay:10.37,2013-10-09 17:06:00,
2013-10-09 13:07:00,65.7,49.1,30.28,North,7,3.6,9.2,55,0.00,CLR,,0.00,WeatherDisplay:10.37,2013-10-09 17:07:00,
2013-10-09 13:08:00,65.9,49.8,30.28,North,354,1.9,8.1,56,0.00,CLR,,0.00,WeatherDisplay:10.37,2013-10-09 17:08:00,
2013-10-09 13:10:00,65.8,50.6,30.28,NNW,344,1.4,5.8,58,0.00,CLR,,0.00,WeatherDisplay:10.37,2013-10-09 17:10:00,
2013-10-09 13:11:00,66.0,48.9,30.28,NE,38,5.8,10.4,54,0.00,CLR,,0.00,WeatherDisplay:10.37,2013-10-09 17:11:00,
2013-10-09 13:12:00,65.8,49.7,30.28,North,360,5.0,9.2,56,0.00,CLR,,0.00,WeatherDisplay:10.37,2013-10-09 17:12:00,
2013-10-09 13:13:00,65.7,49.1,30.28,North,360,5.4,8.1,55,0.00,CLR,,0.00,WeatherDisplay:10.37,2013-10-09 17:13:00,
2013-10-09 13:15:00,66.0,49.4,30.28,NNW,343,6.0,8.1,55,0.00,CLR,,0.00,WeatherDisplay:10.37,2013-10-09 17:15:00,
2013-10-09 13:16:00,66.0,49.8,30.28,North,1,4.9,9.2,56,0.00,CLR,,0.00,WeatherDisplay:10.37,2013-10-09 17:16:00,
2013-10-09 13:17:00,66.1,49.9,30.28,NNW,337,2.7,5.8,56,0.00,CLR,,0.00,WeatherDisplay:10.37,2013-10-09 17:17:00,
2013-10-09 13:18:00,66.3,49.2,30.28,NW,320,6.4,8.1,54,0.00,CLR,,0.00,WeatherDisplay:10.37,2013-10-09 17:18:00,
2013-10-09 13:20:00,66.7,50.0,30.27,North,360,3.5,5.8,55,0.00,CLR,,0.00,WeatherDisplay:10.37,2013-10-09 17:20:00,
2013-10-09 13:22:00,67.0,50.3,30.27,NNE,20,0.7,4.6,55,0.00,CLR,,0.00,WeatherDisplay:10.37,2013-10-09 17:22:00,
2013-10-09 13:23:00,67.4,50.2,30.27,NNW,346,3.0,4.6,54,0.00,CLR,,0.00,WeatherDisplay:10.37,2013-10-09 17:23:00,
2013-10-09 13:24:00,67.1,50.4,30.27,NW,306,1.2,8.1,55,0.00,CLR,,0.00,WeatherDisplay:10.37,2013-10-09 17:24:00,
2013-10-09 13:25:00,67.3,49.6,30.27,North,357,7.5,10.0,53,0.00,CLR,,0.00,WeatherDisplay:10.37,2013-10-09 17:25:00,
2013-10-09 13:27:00,67.1,49.9,30.27,NE,37,6.0,12.7,54,0.00,CLR,,0.00,WeatherDisplay:10.37,2013-10-09 17:27:00,
2013-10-09 13:28:00,67.3,50.1,30.27,North,360,3.0,9.2,54,0.00,CLR,,0.00,WeatherDisplay:10.37,2013-10-09 17:28:00,
2013-10-09 13:29:00,67.3,50.1,30.27,North,8,2.0,5.8,54,0.00,CLR,,0.00,WeatherDisplay:10.37,2013-10-09 17:29:00,
2013-10-09 13:30:00,67.2,49.0,30.27,NW,323,2.9,8.1,52,0.00,CLR,,0.00,WeatherDisplay:10.37,2013-10-09 17:30:00,
2013-10-09 13:32:00,67.7,49.9,30.27,NNW,336,7.6,10.4,53,0.00,CLR,,0.00,WeatherDisplay:10.37,2013-10-09 17:32:00,
2013-10-09 13:33:00,67.7,50.5,30.27,North,1,6.7,10.4,54,0.00,CLR,,0.00,WeatherDisplay:10.37,2013-10-09 17:33:00,
2013-10-09 13:34:00,67.2,49.0,30.27,NNW,347,6.9,11.5,52,0.00,CLR,,0.00,WeatherDisplay:10.37,2013-10-09 17:34:00,
2013-10-09 13:35:00,67.4,49.2,30.27,North,4,7.7,10.4,52,0.00,CLR,,0.00,WeatherDisplay:10.37,2013-10-09 17:35:00,
2013-10-09 13:38:00,67.4,49.2,30.26,North,10,8.2,12.7,52,0.00,CLR,,0.00,WeatherDisplay:10.37,2013-10-09 17:38:00,
2013-10-09 13:39:00,67.4,49.2,30.27,NNE,20,7.8,10.4,52,0.00,CLR,,0.00,WeatherDisplay:10.37,2013-10-09 17:39:00,
2013-10-09 13:41:00,67.7,49.4,30.27,North,4,5.6,9.2,52,0.00,CLR,,0.00,WeatherDisplay:10.37,2013-10-09 17:41:00,
2013-10-09 13:43:00,68.0,49.2,30.27,North,6,3.5,6.9,51,0.00,CLR,,0.00,WeatherDisplay:10.37,2013-10-09 17:43:00,
2013-10-09 13:44:00,67.8,49.0,30.26,North,6,0.1,4.6,51,0.00,CLR,,0.00,WeatherDisplay:10.37,2013-10-09 17:44:00,
2013-10-09 13:46:00,68.4,50.6,30.26,ENE,78,0.5,3.5,53,0.00,CLR,,0.00,WeatherDisplay:10.37,2013-10-09 17:46:00,
2013-10-09 13:48:00,68.3,48.9,30.26,NNE,13,6.9,9.2,50,0.00,CLR,,0.00,WeatherDisplay:10.37,2013-10-09 17:48:00,
2013-10-09 13:49:00,68.2,48.3,30.26,North,353,6.3,9.2,49,0.00,CLR,,0.00,WeatherDisplay:10.37,2013-10-09 17:49:00,
2013-10-09 13:50:00,68.2,48.8,30.26,ENE,61,2.3,6.9,50,0.00,CLR,,0.00,WeatherDisplay:10.37,2013-10-09 17:50:00,
2013-10-09 13:51:00,68.2,49.9,30.26,NNW,342,2.1,8.1,52,0.00,CLR,,0.00,WeatherDisplay:10.37,2013-10-09 17:51:00,
2013-10-09 13:54:00,67.8,47.9,30.26,WNW,298,6.0,8.3,49,0.00,CLR,,0.00,WeatherDisplay:10.37,2013-10-09 17:54:00,
2013-10-09 13:55:00,67.7,48.4,30.26,North,10,6.4,9.2,50,0.00,CLR,,0.00,WeatherDisplay:10.37,2013-10-09 17:55:00,
2013-10-09 13:56:00,67.3,48.0,30.26,NW,322,5.1,10.4,50,0.00,CLR,,0.00,WeatherDisplay:10.37,2013-10-09 17:56:00,
2013-10-09 13:59:00,67.3,48.5,30.26,North,359,5.3,9.6,51,0.00,CLR,,0.00,WeatherDisplay:10.37,2013-10-09 17:59:00,
2013-10-09 14:00:00,67.1,47.8,30.26,NNW,333,7.9,12.7,50,0.00,CLR,,0.00,WeatherDisplay:10.37,2013-10-09 18:00:00,
2013-10-09 14:01:00,67.4,49.2,30.26,North,360,6.8,11.5,52,0.00,CLR,,0.00,WeatherDisplay:10.37,2013-10-09 18:01:00,
2013-10-09 14:04:00,67.2,48.5,30.26,North,8,8.5,12.7,51,0.00,CLR,,0.00,WeatherDisplay:10.37,2013-10-09 18:04:00,
2013-10-09 14:05:00,67.0,47.7,30.26,North,360,5.1,12.7,50,0.00,CLR,,0.00,WeatherDisplay:10.37,2013-10-09 18:05:00,
2013-10-09 14:06:00,67.4,48.6,30.26,NNE,14,3.7,6.9,51,0.00,CLR,,0.00,WeatherDisplay:10.37,2013-10-09 18:06:00,
2013-10-09 14:09:00,67.1,47.3,30.26,North,356,6.2,9.2,49,0.00,CLR,,0.00,WeatherDisplay:10.37,2013-10-09 18:09:00,
2013-10-09 14:10:00,67.1,47.3,30.26,North,354,6.2,9.2,49,0.00,CLR,,0.00,WeatherDisplay:10.37,2013-10-09 18:10:00,
2013-10-09 14:11:00,67.1,47.3,30.26,North,353,3.4,9.2,49,0.00,CLR,,0.00,WeatherDisplay:10.37,2013-10-09 18:11:00,
2013-10-09 14:15:00,66.9,48.2,30.26,North,354,0.7,4.6,51,0.00,CLR,,0.00,WeatherDisplay:10.37,2013-10-09 18:15:00,
2013-10-09 14:16:00,67.1,48.9,30.26,North,3,2.6,8.1,52,0.00,CLR,,0.00,WeatherDisplay:10.37,2013-10-09 18:16:00,
2013-10-09 14:20:00,66.8,48.1,30.26,North,360,0.0,0.0,51,0.00,CLR,,0.00,WeatherDisplay:10.37,2013-10-09 18:20:00,
2013-10-09 14:21:00,67.3,49.1,30.26,North,360,0.0,0.0,52,0.00,CLR,,0.00,WeatherDisplay:10.37,2013-10-09 18:21:00,
2013-10-09 14:25:00,67.3,49.1,30.26,North,8,0.8,6.9,52,0.00,CLR,,0.00,WeatherDisplay:10.37,2013-10-09 18:25:00,
2013-10-09 14:26:00,67.3,49.1,30.26,North,8,0.0,6.9,52,0.00,CLR,,0.00,WeatherDisplay:10.37,2013-10-09 18:26:00,
2013-10-09 14:31:00,67.6,49.3,30.25,NE,51,0.5,6.9,52,0.00,CLR,,0.00,WeatherDisplay:10.37,2013-10-09 18:31:00,
2013-10-09 14:32:00,67.4,48.6,30.25,NNW,339,2.4,4.6,51,0.00,CLR,,0.00,WeatherDisplay:10.37,2013-10-09 18:32:00,
2013-10-09 14:36:00,67.3,49.1,30.25,NNE,21,0.0,0.0,52,0.00,CLR,,0.00,WeatherDisplay:10.37,2013-10-09 18:36:00,
2013-10-09 14:37:00,67.3,49.1,30.25,NNE,14,1.1,3.5,52,0.00,CLR,,0.00,WeatherDisplay:10.37,2013-10-09 18:37:00,
2013-10-09 14:41:00,67.4,49.7,30.25,ENE,68,1.8,4.6,53,0.00,CLR,,0.00,WeatherDisplay:10.37,2013-10-09 18:41:00,
2013-10-09 14:42:00,67.5,49.8,30.25,ENE,68,0.7,4.6,53,0.00,CLR,,0.00,WeatherDisplay:10.37,2013-10-09 18:42:00,
2013-10-09 14:43:00,67.4,49.2,30.25,ENE,68,0.7,3.5,52,0.00,CLR,,0.00,WeatherDisplay:10.37,2013-10-09 18:43:00,
2013-10-09 14:46:00,67.8,50.5,30.25,ENE,68,0.0,0.0,54,0.00,CLR,,0.00,WeatherDisplay:10.37,2013-10-09 18:46:00,
2013-10-09 14:47:00,67.4,50.2,30.25,North,357,0.3,3.0,54,0.00,CLR,,0.00,WeatherDisplay:10.37,2013-10-09 18:47:00,
2013-10-09 14:49:00,67.8,50.0,30.25,North,4,0.0,4.6,53,0.00,CLR,,0.00,WeatherDisplay:10.37,2013-10-09 18:49:00,
2013-10-09 14:51:00,67.3,49.6,30.25,NNE,17,4.1,6.9,53,0.00,CLR,,0.00,WeatherDisplay:10.37,2013-10-09 18:51:00,
2013-10-09 14:52:00,67.4,49.7,30.25,NNW,340,2.6,6.9,53,0.00,CLR,,0.00,WeatherDisplay:10.37,2013-10-09 18:52:00,
2013-10-09 14:53:00,67.1,48.9,30.25,NNE,13,4.7,6.9,52,0.00,CLR,,0.00,WeatherDisplay:10.37,2013-10-09 18:53:00,
2013-10-09 14:54:00,67.1,48.9,30.25,North,360,5.7,8.1,52,0.00,CLR,,0.00,WeatherDisplay:10.37,2013-10-09 18:54:00,
2013-10-09 14:56:00,67.0,49.3,30.25,NE,38,1.9,5.8,53,0.00,CLR,,0.00,WeatherDisplay:10.37,2013-10-09 18:56:00,
2013-10-09 14:57:00,66.7,49.0,30.25,North,353,2.2,5.8,53,0.00,CLR,,0.00,WeatherDisplay:10.37,2013-10-09 18:57:00,
2013-10-09 14:58:00,66.8,49.6,30.25,North,352,2.5,5.8,54,0.00,CLR,,0.00,WeatherDisplay:10.37,2013-10-09 18:58:00,
2013-10-09 14:59:00,66.7,49.5,30.25,North,352,0.0,0.0,54,0.00,CLR,,0.00,WeatherDisplay:10.37,2013-10-09 18:59:00,
2013-10-09 15:01:00,66.6,49.4,30.25,North,8,1.1,6.9,54,0.00,CLR,,0.00,WeatherDisplay:10.37,2013-10-09 19:01:00,
2013-10-09 15:02:00,66.8,49.6,30.25,North,8,0.5,6.9,54,0.00,CLR,,0.00,WeatherDisplay:10.37,2013-10-09 19:02:00,
2013-10-09 15:03:00,66.7,49.5,30.25,North,11,4.5,6.9,54,0.00,CLR,,0.00,WeatherDisplay:10.37,2013-10-09 19:03:00,
2013-10-09 15:05:00,66.6,49.9,30.25,North,6,0.0,0.0,55,0.00,CLR,,0.00,WeatherDisplay:10.37,2013-10-09 19:05:00,
2013-10-09 15:07:00,66.7,50.5,30.25,North,6,0.0,0.0,56,0.00,CLR,,0.00,WeatherDisplay:10.37,2013-10-09 19:07:00,
2013-10-09 15:08:00,66.3,49.6,30.25,North,6,0.0,0.0,55,0.00,CLR,,0.00,WeatherDisplay:10.37,2013-10-09 19:08:00,
2013-10-09 15:10:00,66.3,49.6,30.25,North,1,3.7,4.6,55,0.00,CLR,,0.00,WeatherDisplay:10.37,2013-10-09 19:10:00,
2013-10-09 15:12:00,66.4,50.2,30.25,NNE,17,2.1,4.6,56,0.00,CLR,,0.00,WeatherDisplay:10.37,2013-10-09 19:12:00,
2013-10-09 15:13:00,66.2,50.0,30.25,NW,315,2.5,8.1,56,0.00,CLR,,0.00,WeatherDisplay:10.37,2013-10-09 19:13:00,
2013-10-09 15:17:00,66.0,49.8,30.25,North,360,1.4,6.8,56,0.00,CLR,,0.00,WeatherDisplay:10.37,2013-10-09 19:17:00,
2013-10-09 15:18:00,66.0,50.3,30.25,NNE,13,3.6,4.6,57,0.00,CLR,,0.00,WeatherDisplay:10.37,2013-10-09 19:18:00,
2013-10-09 15:19:00,66.0,49.8,30.25,North,357,3.1,6.9,56,0.00,CLR,,0.00,WeatherDisplay:10.37,2013-10-09 19:19:00,
2013-10-09 15:22:00,65.7,50.0,30.25,NNW,340,3.8,8.1,57,0.00,CLR,,0.00,WeatherDisplay:10.37,2013-10-09 19:22:00,
2013-10-09 15:23:00,65.7,50.5,30.25,NNE,24,2.7,8.1,58,0.00,CLR,,0.00,WeatherDisplay:10.37,2013-10-09 19:23:00,
2013-10-09 15:24:00,65.6,50.4,30.25,NW,323,5.8,6.9,58,0.00,CLR,,0.00,WeatherDisplay:10.37,2013-10-09 19:24:00,
2013-10-09 15:27:00,65.7,50.5,30.25,North,6,2.8,4.9,58,0.00,CLR,,0.00,WeatherDisplay:10.37,2013-10-09 19:27:00,
2013-10-09 15:28:00,65.8,50.6,30.25,NNW,337,4.2,4.4,58,0.00,CLR,,0.00,WeatherDisplay:10.37,2013-10-09 19:28:00,
2013-10-09 15:29:00,65.6,50.4,30.25,NNW,337,0.0,0.0,58,0.00,CLR,,0.00,WeatherDisplay:10.37,2013-10-09 19:29:00,
2013-10-09 15:33:00,65.5,50.8,30.25,North,3,2.0,6.9,59,0.00,CLR,,0.00,WeatherDisplay:10.37,2013-10-09 19:33:00,
2013-10-09 15:34:00,65.7,51.0,30.25,North,3,0.0,0.0,59,0.00,CLR,,0.00,WeatherDisplay:10.37,2013-10-09 19:34:00,
2013-10-09 15:36:00,65.9,50.7,30.25,North,11,1.4,5.0,58,0.00,CLR,,0.00,WeatherDisplay:10.37,2013-10-09 19:36:00,
2013-10-09 15:38:00,65.8,50.6,30.25,East,79,1.4,5.8,58,0.00,CLR,,0.00,WeatherDisplay:10.37,2013-10-09 19:38:00,
2013-10-09 15:39:00,66.2,51.4,30.25,East,79,0.0,0.0,59,0.00,CLR,,0.00,WeatherDisplay:10.37,2013-10-09 19:39:00,
2013-10-09 15:41:00,66.0,51.3,30.25,NNE,13,0.2,5.8,59,0.00,CLR,,0.00,WeatherDisplay:10.37,2013-10-09 19:41:00,
2013-10-09 15:43:00,66.1,50.9,30.25,NW,325,5.4,9.2,58,0.00,CLR,,0.00,WeatherDisplay:10.37,2013-10-09 19:43:00,
2013-10-09 15:44:00,66.1,50.9,30.25,North,360,3.0,8.1,58,0.00,CLR,,0.00,WeatherDisplay:10.37,2013-10-09 19:44:00,
2013-10-09 15:45:00,66.2,51.4,30.25,North,360,3.2,4.6,59,0.00,CLR,,0.00,WeatherDisplay:10.37,2013-10-09 19:45:00,
2013-10-09 15:48:00,66.4,51.6,30.25,North,360,1.7,3.5,59,0.00,CLR,,0.00,WeatherDisplay:10.37,2013-10-09 19:48:00,
2013-10-09 15:49:00,66.4,51.2,30.25,North,6,2.5,6.8,58,0.00,CLR,,0.00,WeatherDisplay:10.37,2013-10-09 19:49:00,
2013-10-09 15:50:00,66.4,51.2,30.25,NNW,337,2.8,6.9,58,0.00,CLR,,0.00,WeatherDisplay:10.37,2013-10-09 19:50:00,
2013-10-09 15:53:00,66.3,51.1,30.25,NE,38,1.5,5.8,58,0.00,CLR,,0.00,WeatherDisplay:10.37,2013-10-09 19:53:00,
2013-10-09 15:54:00,66.3,51.1,30.25,NE,38,0.0,5.8,58,0.00,CLR,,0.00,WeatherDisplay:10.37,2013-10-09 19:54:00,
2013-10-09 15:55:00,66.3,50.6,30.24,NNE,24,1.8,5.8,57,0.00,CLR,,0.00,WeatherDisplay:10.37,2013-10-09 19:55:00,
2013-10-09 15:58:00,66.4,50.2,30.25,NNE,16,4.7,9.2,56,0.00,CLR,,0.00,WeatherDisplay:10.37,2013-10-09 19:58:00,
2013-10-09 15:59:00,66.2,50.0,30.25,NNE,16,3.0,9.2,56,0.00,CLR,,0.00,WeatherDisplay:10.37,2013-10-09 19:59:00,
2013-10-09 16:00:00,66.2,50.5,30.25,NNE,16,0.0,0.0,57,0.00,CLR,,0.00,WeatherDisplay:10.37,2013-10-09 20:00:00,
2013-10-09 16:04:00,66.4,50.2,30.25,North,6,6.4,8.2,56,0.00,CLR,,0.00,WeatherDisplay:10.37,2013-10-09 20:04:00,
2013-10-09 16:05:00,66.2,50.0,30.24,NNW,346,6.4,10.4,56,0.00,CLR,,0.00,WeatherDisplay:10.37,2013-10-09 20:05:00,
2013-10-09 16:09:00,66.4,51.2,30.24,North,3,2.0,6.9,58,0.00,CLR,,0.00,WeatherDisplay:10.37,2013-10-09 20:09:00,
2013-10-09 16:11:00,66.0,49.8,30.25,North,360,5.5,6.3,56,0.00,CLR,,0.00,WeatherDisplay:10.37,2013-10-09 20:11:00,
2013-10-09 16:12:00,66.1,49.9,30.25,North,11,3.9,5.8,56,0.00,CLR,,0.00,WeatherDisplay:10.37,2013-10-09 20:12:00,
2013-10-09 16:14:00,65.9,49.8,30.24,NNE,21,0.2,6.9,56,0.00,CLR,,0.00,WeatherDisplay:10.37,2013-10-09 20:14:00,
2013-10-09 16:15:00,66.1,50.4,30.24,NNE,21,0.0,0.0,57,0.00,CLR,,0.00,WeatherDisplay:10.37,2013-10-09 20:15:00,
2013-10-09 16:16:00,66.3,51.1,30.24,NNE,21,0.0,0.0,58,0.00,CLR,,0.00,WeatherDisplay:10.37,2013-10-09 20:16:00,
2013-10-09 16:17:00,66.4,50.7,30.24,NNE,21,0.0,0.0,57,0.00,CLR,,0.00,WeatherDisplay:10.37,2013-10-09 20:17:00,
2013-10-09 16:19:00,66.5,50.8,30.24,North,3,0.8,4.6,57,0.00,CLR,,0.00,WeatherDisplay:10.37,2013-10-09 20:19:00,
2013-10-09 16:20:00,66.6,50.9,30.24,North,3,0.8,4.6,57,0.00,CLR,,0.00,WeatherDisplay:10.37,2013-10-09 20:20:00,
2013-10-09 16:21:00,66.7,51.5,30.24,NE,44,1.4,4.6,58,0.00,CLR,,0.00,WeatherDisplay:10.37,2013-10-09 20:21:00,
2013-10-09 16:23:00,67.0,51.3,30.24,ENE,66,0.0,5.8,57,0.00,CLR,,0.00,WeatherDisplay:10.37,2013-10-09 20:23:00,
2013-10-09 16:24:00,67.1,50.9,30.24,North,349,1.4,5.8,56,0.00,CLR,,0.00,WeatherDisplay:10.37,2013-10-09 20:24:00,
2013-10-09 16:25:00,67.1,50.9,30.24,North,349,1.4,5.8,56,0.00,CLR,,0.00,WeatherDisplay:10.37,2013-10-09 20:25:00,
2013-10-09 16:26:00,67.4,50.7,30.24,NNE,18,2.2,5.8,55,0.00,CLR,,0.00,WeatherDisplay:10.37,2013-10-09 20:26:00,
2013-10-09 16:28:00,67.8,50.5,30.24,North,4,1.1,4.6,54,0.00,CLR,,0.00,WeatherDisplay:10.37,2013-10-09 20:28:00,
2013-10-09 16:30:00,67.7,50.9,30.24,North,4,0.0,0.0,55,0.00,CLR,,0.00,WeatherDisplay:10.37,2013-10-09 20:30:00,
2013-10-09 16:31:00,68.0,50.7,30.24,North,4,0.0,0.0,54,0.00,CLR,,0.00,WeatherDisplay:10.37,2013-10-09 20:31:00,
2013-10-09 16:32:00,68.1,49.8,30.24,North,4,3.9,8.3,52,0.00,CLR,,0.00,WeatherDisplay:10.37,2013-10-09 20:32:00,
2013-10-09 16:33:00,68.2,49.9,30.24,North,4,6.1,11.5,52,0.00,CLR,,0.00,WeatherDisplay:10.37,2013-10-09 20:33:00,
2013-10-09 16:35:00,67.8,49.5,30.24,North,360,0.3,0.0,52,0.00,CLR,,0.00,WeatherDisplay:10.37,2013-10-09 20:35:00,
2013-10-09 16:36:00,67.9,49.1,30.24,North,360,0.3,2.3,51,0.00,CLR,,0.00,WeatherDisplay:10.37,2013-10-09 20:36:00,
2013-10-09 16:37:00,68.3,50.0,30.24,North,360,0.0,2.3,52,0.00,CLR,,0.00,WeatherDisplay:10.37,2013-10-09 20:37:00,
2013-10-09 16:38:00,68.3,50.5,30.24,NNE,13,1.2,6.6,53,0.00,CLR,,0.00,WeatherDisplay:10.37,2013-10-09 20:38:00,
2013-10-09 16:40:00,68.6,50.8,30.24,NE,56,0.0,3.5,53,0.00,CLR,,0.00,WeatherDisplay:10.37,2013-10-09 20:40:00,
2013-10-09 16:41:00,68.5,50.2,30.24,NNW,332,1.2,4.6,52,0.00,CLR,,0.00,WeatherDisplay:10.37,2013-10-09 20:41:00,
2013-10-09 16:42:00,68.6,50.3,30.24,WNW,295,2.4,4.6,52,0.00,CLR,,0.00,WeatherDisplay:10.37,2013-10-09 20:42:00,
2013-10-09 16:43:00,68.4,50.1,30.24,NNW,346,0.7,5.8,52,0.00,CLR,,0.00,WeatherDisplay:10.37,2013-10-09 20:43:00,
2013-10-09 16:46:00,69.1,51.2,30.24,NNW,346,0.0,0.0,53,0.00,CLR,,0.00,WeatherDisplay:10.37,2013-10-09 20:46:00,
2013-10-09 16:47:00,69.2,50.3,30.24,NNW,346,0.0,0.0,51,0.00,CLR,,0.00,WeatherDisplay:10.37,2013-10-09 20:47:00,
2013-10-09 16:48:00,69.1,49.7,30.24,NNW,330,0.9,4.9,50,0.00,CLR,,0.00,WeatherDisplay:10.37,2013-10-09 20:48:00,
2013-10-09 16:49:00,69.4,50.5,30.24,North,0,2.3,0.0,51,0.00,CLR,,0.00,WeatherDisplay:10.37,2013-10-09 20:49:00,
2013-10-09 16:51:00,69.2,50.3,30.24,NW,313,0.2,2.3,51,0.00,CLR,,0.00,WeatherDisplay:10.37,2013-10-09 20:51:00,
2013-10-09 16:52:00,69.2,50.3,30.24,North,360,2.2,5.8,51,0.00,CLR,,0.00,WeatherDisplay:10.37,2013-10-09 20:52:00,
2013-10-09 16:54:00,69.1,50.2,30.24,ENE,62,1.9,8.1,51,0.00,CLR,,0.00,WeatherDisplay:10.37,2013-10-09 20:54:00,
2013-10-09 16:56:00,69.0,50.6,30.24,NNE,23,0.0,0.0,52,0.00,CLR,,0.00,WeatherDisplay:10.37,2013-10-09 20:56:00,
2013-10-09 16:57:00,68.9,50.5,30.24,North,0,1.1,5.8,52,0.00,CLR,,0.00,WeatherDisplay:10.37,2013-10-09 20:57:00,
2013-10-09 16:59:00,68.7,49.3,30.24,NNE,16,3.7,5.8,50,0.00,CLR,,0.00,WeatherDisplay:10.37,2013-10-09 20:59:00,
2013-10-09 17:01:00,68.5,50.2,30.24,North,360,3.6,8.1,52,0.00,CLR,,0.00,WeatherDisplay:10.37,2013-10-09 21:01:00,
2013-10-09 17:02:00,68.4,50.6,30.24,NW,320,1.3,6.9,53,0.00,CLR,,0.00,WeatherDisplay:10.37,2013-10-09 21:02:00,
2013-10-09 17:04:00,68.5,50.7,30.24,North,1,2.8,6.3,53,0.00,CLR,,0.00,WeatherDisplay:10.37,2013-10-09 21:04:00,
2013-10-09 17:06:00,68.4,50.6,30.24,North,1,2.9,6.9,53,0.00,CLR,,0.00,WeatherDisplay:10.37,2013-10-09 21:06:00,
2013-10-09 17:08:00,68.5,50.2,30.24,NNE,27,3.6,6.9,52,0.00,CLR,,0.00,WeatherDisplay:10.37,2013-10-09 21:08:00,
2013-10-09 17:09:00,68.4,50.6,30.24,North,360,0.3,6.9,53,0.00,CLR,,0.00,WeatherDisplay:10.37,2013-10-09 21:09:00,
2013-10-09 17:11:00,68.5,51.2,30.24,North,360,0.0,2.3,54,0.00,CLR,,0.00,WeatherDisplay:10.37,2013-10-09 21:11:00,
2013-10-09 17:12:00,68.2,50.9,30.24,ENE,64,0.8,4.6,54,0.00,CLR,,0.00,WeatherDisplay:10.37,2013-10-09 21:12:00,
2013-10-09 17:13:00,68.5,51.2,30.24,NNW,333,2.2,6.6,54,0.00,CLR,,0.00,WeatherDisplay:10.37,2013-10-09 21:13:00,
2013-10-09 17:14:00,68.5,50.7,30.24,NNW,337,0.0,6.9,53,0.00,CLR,,0.00,WeatherDisplay:10.37,2013-10-09 21:14:00,
2013-10-09 17:15:00,68.5,50.2,30.24,NNW,337,0.0,0.0,52,0.00,CLR,,0.00,WeatherDisplay:10.37,2013-10-09 21:15:00,
2013-10-09 17:16:00,68.9,51.1,30.23,North,7,1.1,4.6,53,0.00,CLR,,0.00,WeatherDisplay:10.37,2013-10-09 21:16:00,
2013-10-09 17:17:00,68.9,50.5,30.23,North,7,0.3,2.3,52,0.00,CLR,,0.00,WeatherDisplay:10.37,2013-10-09 21:17:00,
2013-10-09 17:18:00,68.8,51.0,30.23,East,80,0.2,2.3,53,0.00,CLR,,0.00,WeatherDisplay:10.37,2013-10-09 21:18:00,
2013-10-09 17:20:00,69.0,51.2,30.23,NNE,24,1.3,5.8,53,0.00,CLR,,0.00,WeatherDisplay:10.37,2013-10-09 21:20:00,
2013-10-09 17:22:00,68.9,50.5,30.24,NNE,24,0.0,0.0,52,0.00,CLR,,0.00,WeatherDisplay:10.37,2013-10-09 21:22:00,
2013-10-09 17:23:00,68.7,50.4,30.23,North,360,2.9,5.8,52,0.00,CLR,,0.00,WeatherDisplay:10.37,2013-10-09 21:23:00,
2013-10-09 17:25:00,68.6,50.3,30.23,North,360,0.0,0.0,52,0.00,CLR,,0.00,WeatherDisplay:10.37,2013-10-09 21:25:00,
2013-10-09 17:26:00,68.8,50.5,30.23,North,360,0.0,0.0,52,0.00,CLR,,0.00,WeatherDisplay:10.37,2013-10-09 21:26:00,
2013-10-09 17:27:00,68.6,50.8,30.23,North,360,0.0,0.0,53,0.00,CLR,,0.00,WeatherDisplay:10.37,2013-10-09 21:27:00,
2013-10-09 17:28:00,68.8,50.5,30.23,North,360,0.0,2.3,52,0.00,CLR,,0.00,WeatherDisplay:10.37,2013-10-09 21:28:00,
2013-10-09 17:31:00,68.6,49.7,30.23,North,10,3.3,6.9,51,0.00,CLR,,0.00,WeatherDisplay:10.37,2013-10-09 21:31:00,
2013-10-09 17:32:00,68.4,50.6,30.24,NNE,17,0.0,3.5,53,0.00,CLR,,0.00,WeatherDisplay:10.37,2013-10-09 21:32:00,
2013-10-09 17:34:00,68.6,50.8,30.24,NNE,17,0.0,0.0,53,0.00,CLR,,0.00,WeatherDisplay:10.37,2013-10-09 21:34:00,
2013-10-09 17:36:00,68.5,50.7,30.23,North,3,0.6,4.5,53,0.00,CLR,,0.00,WeatherDisplay:10.37,2013-10-09 21:36:00,
2013-10-09 17:37:00,68.4,50.6,30.23,North,3,0.9,3.0,53,0.00,CLR,,0.00,WeatherDisplay:10.37,2013-10-09 21:37:00,
2013-10-09 17:38:00,68.5,50.7,30.23,NE,51,3.7,4.6,53,0.00,CLR,,0.00,WeatherDisplay:10.37,2013-10-09 21:38:00,
2013-10-09 17:39:00,68.4,50.6,30.23,NW,318,1.7,4.6,53,0.00,CLR,,0.00,WeatherDisplay:10.37,2013-10-09 21:39:00,
2013-10-09 17:42:00,68.5,50.2,30.23,North,8,2.1,5.8,52,0.00,CLR,,0.00,WeatherDisplay:10.37,2013-10-09 21:42:00,
2013-10-09 17:43:00,68.3,50.0,30.23,North,0,3.0,4.6,52,0.00,CLR,,0.00,WeatherDisplay:10.37,2013-10-09 21:43:00,
2013-10-09 17:44:00,67.9,50.1,30.23,North,0,0.0,0.0,53,0.00,CLR,,0.00,WeatherDisplay:10.37,2013-10-09 21:44:00,
2013-10-09 17:47:00,67.6,49.3,30.23,NNW,343,3.3,9.2,52,0.00,CLR,,0.00,WeatherDisplay:10.37,2013-10-09 21:47:00,
2013-10-09 17:48:00,67.7,49.9,30.23,North,11,1.1,5.8,53,0.00,CLR,,0.00,WeatherDisplay:10.37,2013-10-09 21:48:00,
2013-10-09 17:49:00,67.0,49.3,30.23,North,11,0.0,2.3,53,0.00,CLR,,0.00,WeatherDisplay:10.37,2013-10-09 21:49:00,
2013-10-09 17:52:00,66.9,49.7,30.24,NE,37,1.7,8.1,54,0.00,CLR,,0.00,WeatherDisplay:10.37,2013-10-09 21:52:00,
2013-10-09 17:53:00,67.1,49.9,30.23,North,4,2.7,8.1,54,0.00,CLR,,0.00,WeatherDisplay:10.37,2013-10-09 21:53:00,
2013-10-09 17:54:00,66.7,50.0,30.23,East,86,3.4,5.3,55,0.00,CLR,,0.00,WeatherDisplay:10.37,2013-10-09 21:54:00,
2013-10-09 17:57:00,66.7,50.5,30.23,ENE,76,0.3,2.3,56,0.00,CLR,,0.00,WeatherDisplay:10.37,2013-10-09 21:57:00,
2013-10-09 17:58:00,66.7,50.5,30.23,ENE,76,0.0,0.0,56,0.00,CLR,,0.00,WeatherDisplay:10.37,2013-10-09 21:58:00,
2013-10-09 18:00:00,66.6,50.4,30.23,ENE,76,0.2,2.3,56,0.00,CLR,,0.00,WeatherDisplay:10.37,2013-10-09 22:00:00,
2013-10-09 18:02:00,66.8,50.6,30.23,NNE,30,2.1,4.6,56,0.00,CLR,,0.00,WeatherDisplay:10.37,2013-10-09 22:02:00,
2013-10-09 18:03:00,66.4,50.2,30.23,NNE,30,0.1,4.6,56,0.00,CLR,,0.00,WeatherDisplay:10.37,2013-10-09 22:03:00,
2013-10-09 18:04:00,66.2,50.0,30.23,NNE,30,0.0,3.5,56,0.00,CLR,,0.00,WeatherDisplay:10.37,2013-10-09 22:04:00,
2013-10-09 18:05:00,66.8,50.6,30.23,North,11,0.3,2.3,56,0.00,CLR,,0.00,WeatherDisplay:10.37,2013-10-09 22:05:00,
2013-10-09 18:08:00,66.4,50.7,30.23,East,79,0.1,4.6,57,0.00,CLR,,0.00,WeatherDisplay:10.37,2013-10-09 22:08:00,
2013-10-09 18:09:00,66.3,50.6,30.23,East,79,0.0,0.0,57,0.00,CLR,,0.00,WeatherDisplay:10.37,2013-10-09 22:09:00,
2013-10-09 18:10:00,66.4,50.7,30.23,East,79,0.0,1.1,57,0.00,CLR,,0.00,WeatherDisplay:10.37,2013-10-09 22:10:00,
2013-10-09 18:13:00,66.6,50.9,30.23,East,79,0.0,0.0,57,0.00,CLR,,0.00,WeatherDisplay:10.37,2013-10-09 22:13:00,
2013-10-09 18:14:00,66.6,51.4,30.23,East,79,0.0,0.0,58,0.00,CLR,,0.00,WeatherDisplay:10.37,2013-10-09 22:14:00,
2013-10-09 18:15:00,66.4,50.7,30.23,ENE,65,1.8,4.6,57,0.00,CLR,,0.00,WeatherDisplay:10.37,2013-10-09 22:15:00,
2013-10-09 18:18:00,66.7,51.0,30.23,ENE,64,1.2,6.9,57,0.00,CLR,,0.00,WeatherDisplay:10.37,2013-10-09 22:18:00,
2013-10-09 18:19:00,66.7,51.0,30.23,NE,34,2.1,6.9,57,0.00,CLR,,0.00,WeatherDisplay:10.37,2013-10-09 22:19:00,
2013-10-09 18:20:00,66.6,50.9,30.23,ENE,73,1.4,0.0,57,0.00,CLR,,0.00,WeatherDisplay:10.37,2013-10-09 22:20:00,
2013-10-09 18:23:00,66.5,50.8,30.23,ENE,73,0.0,0.0,57,0.00,CLR,,0.00,WeatherDisplay:10.37,2013-10-09 22:23:00,
2013-10-09 18:24:00,66.6,50.9,30.23,ENE,73,0.0,0.0,57,0.00,CLR,,0.00,WeatherDisplay:10.37,2013-10-09 22:24:00,
2013-10-09 18:25:00,66.4,50.7,30.23,ENE,73,0.0,0.0,57,0.00,CLR,,0.00,WeatherDisplay:10.37,2013-10-09 22:25:00,
2013-10-09 18:26:00,66.5,50.8,30.23,ENE,73,0.0,0.0,57,0.00,CLR,,0.00,WeatherDisplay:10.37,2013-10-09 22:26:00,
2013-10-09 18:28:00,66.0,49.8,30.23,NE,54,0.7,4.9,56,0.00,CLR,,0.00,WeatherDisplay:10.37,2013-10-09 22:28:00,
2013-10-09 18:29:00,65.9,50.2,30.23,NE,54,1.0,5.8,57,0.00,CLR,,0.00,WeatherDisplay:10.37,2013-10-09 22:29:00,
2013-10-09 18:30:00,66.3,50.6,30.23,NE,54,0.0,5.8,57,0.00,CLR,,0.00,WeatherDisplay:10.37,2013-10-09 22:30:00,
2013-10-09 18:31:00,66.2,50.5,30.23,NE,54,0.0,0.0,57,0.00,CLR,,0.00,WeatherDisplay:10.37,2013-10-09 22:31:00,
2013-10-09 18:33:00,65.9,50.7,30.23,NE,54,0.0,0.0,58,0.00,CLR,,0.00,WeatherDisplay:10.37,2013-10-09 22:33:00,
2013-10-09 18:35:00,66.1,50.9,30.23,NE,54,0.0,0.0,58,0.00,CLR,,0.00,WeatherDisplay:10.37,2013-10-09 22:35:00,
2013-10-09 18:36:00,65.5,50.3,30.23,NE,54,0.0,0.0,58,0.00,CLR,,0.00,WeatherDisplay:10.37,2013-10-09 22:36:00,
2013-10-09 18:39:00,65.7,50.5,30.23,NNE,23,0.0,5.8,58,0.00,CLR,,0.00,WeatherDisplay:10.37,2013-10-09 22:39:00,
2013-10-09 18:40:00,65.4,50.2,30.23,NNE,23,0.0,0.0,58,0.00,CLR,,0.00,WeatherDisplay:10.37,2013-10-09 22:40:00,
2013-10-09 18:41:00,65.0,49.9,30.23,NNE,23,0.0,0.0,58,0.00,CLR,,0.00,WeatherDisplay:10.37,2013-10-09 22:41:00,
2013-10-09 18:44:00,65.4,50.7,30.23,NNE,23,0.0,0.0,59,0.00,CLR,,0.00,WeatherDisplay:10.37,2013-10-09 22:44:00,
2013-10-09 18:45:00,65.0,50.3,30.23,NNE,23,0.0,0.0,59,0.00,CLR,,0.00,WeatherDisplay:10.37,2013-10-09 22:45:00,
2013-10-09 18:46:00,64.9,50.2,30.23,NNE,23,0.0,0.0,59,0.00,CLR,,0.00,WeatherDisplay:10.37,2013-10-09 22:46:00,
2013-10-09 18:49:00,65.0,50.8,30.23,NE,35,2.7,7.8,60,0.00,CLR,,0.00,WeatherDisplay:10.37,2013-10-09 22:49:00,
2013-10-09 18:50:00,64.7,50.5,30.23,NE,34,1.3,5.8,60,0.00,CLR,,0.00,WeatherDisplay:10.37,2013-10-09 22:50:00,
2013-10-09 18:51:00,64.7,50.5,30.23,NE,41,4.5,9.2,60,0.00,CLR,,0.00,WeatherDisplay:10.37,2013-10-09 22:51:00,
2013-10-09 18:54:00,64.2,50.0,30.23,North,360,0.0,0.0,60,0.00,CLR,,0.00,WeatherDisplay:10.37,2013-10-09 22:54:00,
2013-10-09 18:55:00,64.0,50.3,30.23,NE,44,1.5,6.9,61,0.00,CLR,,0.00,WeatherDisplay:10.37,2013-10-09 22:55:00,
2013-10-09 18:56:00,64.2,50.5,30.23,NE,44,0.0,4.6,61,0.00,CLR,,0.00,WeatherDisplay:10.37,2013-10-09 22:56:00,
2013-10-09 18:57:00,64.2,50.5,30.23,ENE,62,1.2,6.2,61,0.00,CLR,,0.00,WeatherDisplay:10.37,2013-10-09 22:57:00,
2013-10-09 18:59:00,63.9,50.2,30.23,ENE,62,2.3,11.5,61,0.00,CLR,,0.00,WeatherDisplay:10.37,2013-10-09 22:59:00,
2013-10-09 19:00:00,63.7,50.4,30.23,ENE,62,0.0,2.3,62,0.00,CLR,,0.00,WeatherDisplay:10.37,2013-10-09 23:00:00,
2013-10-09 19:01:00,63.8,50.5,30.23,ENE,62,0.0,0.0,62,0.00,CLR,,0.00,WeatherDisplay:10.37,2013-10-09 23:01:00,
2013-10-09 19:02:00,64.0,50.7,30.23,ENE,62,0.0,0.0,62,0.00,CLR,,0.00,WeatherDisplay:10.37,2013-10-09 23:02:00,
2013-10-09 19:04:00,63.6,50.3,30.23,ENE,62,0.0,0.0,62,0.00,CLR,,0.00,WeatherDisplay:10.37,2013-10-09 23:04:00,
2013-10-09 19:06:00,63.7,50.4,30.24,ENE,62,0.0,0.0,62,0.00,CLR,,0.00,WeatherDisplay:10.37,2013-10-09 23:06:00,
2013-10-09 19:07:00,63.6,50.3,30.23,ENE,62,0.0,0.0,62,0.00,CLR,,0.00,WeatherDisplay:10.37,2013-10-09 23:07:00,
2013-10-09 19:08:00,63.8,50.5,30.24,ENE,62,0.0,0.0,62,0.00,CLR,,0.00,WeatherDisplay:10.37,2013-10-09 23:08:00,
2013-10-09 19:09:00,63.8,51.0,30.24,NE,37,1.2,6.9,63,0.00,CLR,,0.00,WeatherDisplay:10.37,2013-10-09 23:09:00,
2013-10-09 19:11:00,63.6,50.8,30.24,NE,37,0.0,0.0,63,0.00,CLR,,0.00,WeatherDisplay:10.37,2013-10-09 23:11:00,
2013-10-09 19:12:00,63.7,50.9,30.24,NE,37,0.0,0.0,63,0.00,CLR,,0.00,WeatherDisplay:10.37,2013-10-09 23:12:00,
2013-10-09 19:13:00,63.2,50.4,30.24,NE,37,0.0,0.0,63,0.00,CLR,,0.00,WeatherDisplay:10.37,2013-10-09 23:13:00,
2013-10-09 19:14:00,63.7,50.9,30.24,NE,37,0.0,0.0,63,0.00,CLR,,0.00,WeatherDisplay:10.37,2013-10-09 23:14:00,
2013-10-09 19:16:00,63.6,50.8,30.24,NE,37,0.0,0.0,63,0.00,CLR,,0.00,WeatherDisplay:10.37,2013-10-09 23:16:00,
2013-10-09 19:17:00,63.4,50.6,30.24,NE,37,0.0,0.0,63,0.00,CLR,,0.00,WeatherDisplay:10.37,2013-10-09 23:17:00,
2013-10-09 19:18:00,63.6,51.2,30.24,NE,37,0.0,0.0,64,0.00,CLR,,0.00,WeatherDisplay:10.37,2013-10-09 23:18:00,
2013-10-09 19:20:00,63.6,50.8,30.24,NE,37,0.0,0.0,63,0.00,CLR,,0.00,WeatherDisplay:10.37,2013-10-09 23:20:00,
2013-10-09 19:22:00,63.0,50.6,30.24,NE,37,0.0,0.0,64,0.00,CLR,,0.00,WeatherDisplay:10.37,2013-10-09 23:22:00,
2013-10-09 19:23:00,63.3,50.9,30.24,NNE,14,0.0,0.0,64,0.00,CLR,,0.00,WeatherDisplay:10.37,2013-10-09 23:23:00,
2013-10-09 19:25:00,63.4,51.0,30.24,NNE,14,0.0,0.0,64,0.00,CLR,,0.00,WeatherDisplay:10.37,2013-10-09 23:25:00,
2013-10-09 19:27:00,63.0,50.6,30.24,NNE,14,0.0,0.0,64,0.00,CLR,,0.00,WeatherDisplay:10.37,2013-10-09 23:27:00,
2013-10-09 19:28:00,63.2,51.2,30.24,NNE,14,0.0,0.0,65,0.00,CLR,,0.00,WeatherDisplay:10.37,2013-10-09 23:28:00,
2013-10-09 19:29:00,63.2,51.2,30.24,NNE,14,0.0,0.0,65,0.00,CLR,,0.00,WeatherDisplay:10.37,2013-10-09 23:29:00,
2013-10-09 19:30:00,63.3,51.3,30.24,NNE,14,0.0,0.0,65,0.00,CLR,,0.00,WeatherDisplay:10.37,2013-10-09 23:30:00,
2013-10-09 19:32:00,62.9,51.0,30.24,NNE,14,0.0,0.0,65,0.00,CLR,,0.00,WeatherDisplay:10.37,2013-10-09 23:32:00,
2013-10-09 19:33:00,63.0,51.0,30.24,NNE,16,1.8,0.0,65,0.00,CLR,,0.00,WeatherDisplay:10.37,2013-10-09 23:33:00,
2013-10-09 19:34:00,63.0,51.0,30.24,NNE,16,1.8,6.9,65,0.00,CLR,,0.00,WeatherDisplay:10.37,2013-10-09 23:34:00,
2013-10-09 19:35:00,63.0,51.0,30.24,NNE,16,0.0,0.0,65,0.00,CLR,,0.00,WeatherDisplay:10.37,2013-10-09 23:35:00,
2013-10-09 19:37:00,62.9,51.0,30.24,East,95,0.6,4.6,65,0.00,CLR,,0.00,WeatherDisplay:10.37,2013-10-09 23:37:00,
2013-10-09 19:38:00,62.8,51.3,30.24,East,95,0.0,0.0,66,0.00,CLR,,0.00,WeatherDisplay:10.37,2013-10-09 23:38:00,
2013-10-09 19:39:00,62.5,51.0,30.24,East,95,0.0,0.0,66,0.00,CLR,,0.00,WeatherDisplay:10.37,2013-10-09 23:39:00,
2013-10-09 19:40:00,62.6,51.1,30.24,NE,40,2.5,8.1,66,0.00,CLR,,0.00,WeatherDisplay:10.37,2013-10-09 23:40:00,
2013-10-09 19:42:00,62.6,51.1,30.24,NE,40,0.0,0.0,66,0.00,CLR,,0.00,WeatherDisplay:10.37,2013-10-09 23:42:00,
2013-10-09 19:43:00,62.4,50.9,30.25,NE,52,1.2,5.8,66,0.00,CLR,,0.00,WeatherDisplay:10.37,2013-10-09 23:43:00,
2013-10-09 19:44:00,62.5,51.0,30.25,NE,52,0.0,3.5,66,0.00,CLR,,0.00,WeatherDisplay:10.37,2013-10-09 23:44:00,
2013-10-09 19:45:00,63.1,51.6,30.25,NE,52,0.0,0.0,66,0.00,CLR,,0.00,WeatherDisplay:10.37,2013-10-09 23:45:00,
2013-10-09 19:47:00,62.3,50.8,30.25,NE,52,0.0,0.0,66,0.00,CLR,,0.00,WeatherDisplay:10.37,2013-10-09 23:47:00,
2013-10-09 19:49:00,62.3,51.2,30.25,NE,52,0.0,0.0,67,0.00,CLR,,0.00,WeatherDisplay:10.37,2013-10-09 23:49:00,
2013-10-09 19:50:00,62.6,51.1,30.25,ENE,71,1.6,5.8,66,0.00,CLR,,0.00,WeatherDisplay:10.37,2013-10-09 23:50:00,
2013-10-09 19:52:00,62.8,51.7,30.25,ENE,71,0.0,0.0,67,0.00,CLR,,0.00,WeatherDisplay:10.37,2013-10-09 23:52:00,
2013-10-09 19:54:00,62.6,51.5,30.25,ENE,58,1.1,3.5,67,0.00,CLR,,0.00,WeatherDisplay:10.37,2013-10-09 23:54:00,
2013-10-09 19:55:00,62.5,51.4,30.25,ENE,58,0.1,3.5,67,0.00,CLR,,0.00,WeatherDisplay:10.37,2013-10-09 23:55:00,
2013-10-09 19:57:00,62.7,51.6,30.25,NE,41,0.4,3.5,67,0.00,CLR,,0.00,WeatherDisplay:10.37,2013-10-09 23:57:00,
2013-10-09 19:59:00,62.0,50.9,30.25,NE,52,3.1,6.9,67,0.00,CLR,,0.00,WeatherDisplay:10.37,2013-10-09 23:59:00,
2013-10-09 20:00:00,62.4,51.3,30.25,NE,52,0.0,4.6,67,0.00,CLR,,0.00,WeatherDisplay:10.37,2013-10-10 00:00:00,
2013-10-09 20:01:00,62.4,51.3,30.25,NE,52,0.0,4.6,67,0.00,CLR,,0.00,WeatherDisplay:10.37,2013-10-10 00:01:00,
2013-10-09 20:02:00,62.2,51.5,30.25,NE,52,0.0,0.0,68,0.00,CLR,,0.00,WeatherDisplay:10.37,2013-10-10 00:02:00,
2013-10-09 20:05:00,62.2,51.5,30.25,NE,52,0.0,0.0,68,0.00,CLR,,0.00,WeatherDisplay:10.37,2013-10-10 00:05:00,
2013-10-09 20:06:00,62.5,51.8,30.25,NE,52,0.0,0.0,68,0.00,CLR,,0.00,WeatherDisplay:10.37,2013-10-10 00:06:00,
2013-10-09 20:07:00,62.0,51.3,30.25,NE,52,0.0,0.0,68,0.00,CLR,,0.00,WeatherDisplay:10.37,2013-10-10 00:07:00,
2013-10-09 20:08:00,61.8,51.1,30.25,NE,52,0.0,0.0,68,0.00,CLR,,0.00,WeatherDisplay:10.37,2013-10-10 00:08:00,
2013-10-09 20:10:00,62.0,51.3,30.25,NE,52,0.2,4.2,68,0.00,CLR,,0.00,WeatherDisplay:10.37,2013-10-10 00:10:00,
2013-10-09 20:11:00,61.9,50.8,30.25,NE,52,0.7,2.1,67,0.00,CLR,,0.00,WeatherDisplay:10.37,2013-10-10 00:11:00,
2013-10-09 20:12:00,61.8,51.1,30.25,North,1,4.3,8.1,68,0.00,CLR,,0.00,WeatherDisplay:10.37,2013-10-10 00:12:00,
2013-10-09 20:13:00,61.6,50.9,30.25,ENE,73,1.5,5.8,68,0.00,CLR,,0.00,WeatherDisplay:10.37,2013-10-10 00:13:00,
2013-10-09 20:16:00,61.7,51.0,30.25,NE,51,0.3,6.0,68,0.00,CLR,,0.00,WeatherDisplay:10.37,2013-10-10 00:16:00,
2013-10-09 20:17:00,61.2,50.6,30.25,NE,38,0.5,5.8,68,0.00,CLR,,0.00,WeatherDisplay:10.37,2013-10-10 00:17:00,
2013-10-09 20:19:00,61.2,50.6,30.25,NNE,25,1.7,8.1,68,0.00,CLR,,0.00,WeatherDisplay:10.37,2013-10-10 00:19:00,
2013-10-09 20:21:00,61.2,50.6,30.25,North,360,0.0,3.4,68,0.00,CLR,,0.00,WeatherDisplay:10.37,2013-10-10 00:21:00,
2013-10-09 20:22:00,61.3,50.6,30.25,North,0,0.2,4.6,68,0.00,CLR,,0.00,WeatherDisplay:10.37,2013-10-10 00:22:00,
2013-10-09 20:24:00,60.8,50.2,30.26,North,0,0.0,0.0,68,0.00,CLR,,0.00,WeatherDisplay:10.37,2013-10-10 00:24:00,
2013-10-09 20:26:00,61.5,50.8,30.26,North,0,0.0,0.0,68,0.00,CLR,,0.00,WeatherDisplay:10.37,2013-10-10 00:26:00,
2013-10-09 20:27:00,60.5,49.9,30.26,North,0,0.0,0.0,68,0.00,CLR,,0.00,WeatherDisplay:10.37,2013-10-10 00:27:00,
2013-10-09 20:30:00,60.6,50.4,30.26,North,0,0.0,0.0,69,0.00,CLR,,0.00,WeatherDisplay:10.37,2013-10-10 00:30:00,
2013-10-09 20:31:00,61.0,50.8,30.26,North,0,0.0,0.0,69,0.00,CLR,,0.00,WeatherDisplay:10.37,2013-10-10 00:31:00,
2013-10-09 20:32:00,60.9,50.7,30.26,North,0,0.0,0.0,69,0.00,CLR,,0.00,WeatherDisplay:10.37,2013-10-10 00:32:00,
2013-10-09 20:33:00,61.2,50.9,30.26,North,0,0.0,0.0,69,0.00,CLR,,0.00,WeatherDisplay:10.37,2013-10-10 00:33:00,
2013-10-09 20:35:00,60.8,50.6,30.26,North,0,0.0,0.0,69,0.00,CLR,,0.00,WeatherDisplay:10.37,2013-10-10 00:35:00,
2013-10-09 20:36:00,60.9,50.7,30.25,North,0,0.0,0.0,69,0.00,CLR,,0.00,WeatherDisplay:10.37,2013-10-10 00:36:00,
2013-10-09 20:37:00,60.8,51.0,30.26,North,0,0.1,3.2,70,0.00,CLR,,0.00,WeatherDisplay:10.37,2013-10-10 00:37:00,
2013-10-09 20:39:00,61.1,51.2,30.25,NE,38,1.4,4.6,70,0.00,CLR,,0.00,WeatherDisplay:10.37,2013-10-10 00:39:00,
2013-10-09 20:40:00,60.8,51.0,30.26,NE,38,0.0,3.5,70,0.00,CLR,,0.00,WeatherDisplay:10.37,2013-10-10 00:40:00,
2013-10-09 20:41:00,60.5,50.7,30.25,NE,38,0.0,0.0,70,0.00,CLR,,0.00,WeatherDisplay:10.37,2013-10-10 00:41:00,
2013-10-09 20:42:00,61.2,51.3,30.25,NE,38,0.0,0.0,70,0.00,CLR,,0.00,WeatherDisplay:10.37,2013-10-10 00:42:00,
2013-10-09 20:43:00,60.6,50.8,30.26,North,3,0.7,3.5,70,0.00,CLR,,0.00,WeatherDisplay:10.37,2013-10-10 00:43:00,
2013-10-09 20:44:00,60.8,51.0,30.26,North,3,0.0,0.0,70,0.00,CLR,,0.00,WeatherDisplay:10.37,2013-10-10 00:44:00,
2013-10-09 20:45:00,60.7,50.9,30.25,North,3,0.0,0.0,70,0.00,CLR,,0.00,WeatherDisplay:10.37,2013-10-10 00:45:00,
2013-10-09 20:47:00,60.6,50.8,30.25,North,3,0.0,0.0,70,0.00,CLR,,0.00,WeatherDisplay:10.37,2013-10-10 00:47:00,
2013-10-09 20:48:00,61.1,51.2,30.25,North,3,0.0,0.0,70,0.00,CLR,,0.00,WeatherDisplay:10.37,2013-10-10 00:48:00,
2013-10-09 20:50:00,60.8,51.0,30.25,North,3,0.0,0.0,70,0.00,CLR,,0.00,WeatherDisplay:10.37,2013-10-10 00:50:00,
2013-10-09 20:52:00,61.0,51.5,30.25,North,3,0.0,0.0,71,0.00,CLR,,0.00,WeatherDisplay:10.37,2013-10-10 00:52:00,
2013-10-09 20:53:00,61.0,51.5,30.25,North,3,0.0,0.0,71,0.00,CLR,,0.00,WeatherDisplay:10.37,2013-10-10 00:53:00,
2013-10-09 20:55:00,61.0,51.5,30.25,North,3,0.0,0.0,71,0.00,CLR,,0.00,WeatherDisplay:10.37,2013-10-10 00:55:00,
2013-10-09 20:56:00,61.2,51.7,30.25,North,3,0.0,0.0,71,0.00,CLR,,0.00,WeatherDisplay:10.37,2013-10-10 00:56:00,
2013-10-09 20:57:00,61.1,51.6,30.25,North,3,0.0,0.0,71,0.00,CLR,,0.00,WeatherDisplay:10.37,2013-10-10 00:57:00,
2013-10-09 20:59:00,61.0,51.5,30.25,North,3,0.0,0.0,71,0.00,CLR,,0.00,WeatherDisplay:10.37,2013-10-10 00:59:00,
2013-10-09 21:01:00,60.9,51.4,30.25,North,3,0.0,0.0,71,0.00,CLR,,0.00,WeatherDisplay:10.37,2013-10-10 01:01:00,
2013-10-09 21:02:00,61.0,51.5,30.25,North,3,0.0,0.0,71,0.00,CLR,,0.00,WeatherDisplay:10.37,2013-10-10 01:02:00,
2013-10-09 21:03:00,60.7,51.2,30.25,North,3,0.0,0.0,71,0.00,CLR,,0.00,WeatherDisplay:10.37,2013-10-10 01:03:00,
2013-10-09 21:04:00,61.0,51.5,30.25,North,3,0.0,0.0,71,0.00,CLR,,0.00,WeatherDisplay:10.37,2013-10-10 01:04:00,
2013-10-09 21:07:00,60.8,51.0,30.25,North,3,0.0,0.0,70,0.00,CLR,,0.00,WeatherDisplay:10.37,2013-10-10 01:07:00,
2013-10-09 21:08:00,60.7,50.9,30.25,North,3,0.0,0.0,70,0.00,CLR,,0.00,WeatherDisplay:10.37,2013-10-10 01:08:00,
2013-10-09 21:09:00,60.9,51.0,30.25,North,3,0.0,0.0,70,0.00,CLR,,0.00,WeatherDisplay:10.37,2013-10-10 01:09:00,
2013-10-09 21:12:00,60.9,51.4,30.25,North,3,0.0,0.0,71,0.00,CLR,,0.00,WeatherDisplay:10.37,2013-10-10 01:12:00,
2013-10-09 21:13:00,60.5,51.0,30.25,North,3,0.0,0.0,71,0.00,CLR,,0.00,WeatherDisplay:10.37,2013-10-10 01:13:00,
2013-10-09 21:14:00,60.6,51.1,30.25,North,3,0.0,0.0,71,0.00,CLR,,0.00,WeatherDisplay:10.37,2013-10-10 01:14:00,
2013-10-09 21:15:00,60.8,51.3,30.25,North,3,0.0,0.0,71,0.00,CLR,,0.00,WeatherDisplay:10.37,2013-10-10 01:15:00,
2013-10-09 21:17:00,60.8,51.3,30.25,North,3,0.0,0.0,71,0.00,CLR,,0.00,WeatherDisplay:10.37,2013-10-10 01:17:00,
2013-10-09 21:18:00,60.8,51.3,30.25,North,3,0.0,0.0,71,0.00,CLR,,0.00,WeatherDisplay:10.37,2013-10-10 01:18:00,
2013-10-09 21:19:00,60.6,51.1,30.25,North,3,0.0,0.0,71,0.00,CLR,,0.00,WeatherDisplay:10.37,2013-10-10 01:19:00,
2013-10-09 21:21:00,60.8,51.7,30.25,North,3,0.0,0.0,72,0.00,CLR,,0.00,WeatherDisplay:10.37,2013-10-10 01:21:00,
2013-10-09 21:22:00,60.8,51.7,30.25,North,3,0.0,0.0,72,0.00,CLR,,0.00,WeatherDisplay:10.37,2013-10-10 01:22:00,
2013-10-09 21:24:00,61.0,51.5,30.25,North,3,0.0,0.0,71,0.00,CLR,,0.00,WeatherDisplay:10.37,2013-10-10 01:24:00,
2013-10-09 21:25:00,60.7,51.6,30.25,North,3,0.0,0.0,72,0.00,CLR,,0.00,WeatherDisplay:10.37,2013-10-10 01:25:00,
2013-10-09 21:26:00,60.9,51.8,30.25,North,3,0.0,0.0,72,0.00,CLR,,0.00,WeatherDisplay:10.37,2013-10-10 01:26:00,
2013-10-09 21:27:00,60.7,51.6,30.25,North,3,0.0,0.0,72,0.00,CLR,,0.00,WeatherDisplay:10.37,2013-10-10 01:27:00,
2013-10-09 21:29:00,60.9,51.8,30.25,North,3,0.0,0.0,72,0.00,CLR,,0.00,WeatherDisplay:10.37,2013-10-10 01:29:00,
2013-10-09 21:30:00,60.6,51.5,30.25,North,3,0.0,0.0,72,0.00,CLR,,0.00,WeatherDisplay:10.37,2013-10-10 01:30:00,
2013-10-09 21:31:00,60.8,51.7,30.25,North,3,0.0,0.0,72,0.00,CLR,,0.00,WeatherDisplay:10.37,2013-10-10 01:31:00,
2013-10-09 21:32:00,60.4,51.3,30.25,North,3,0.0,0.0,72,0.00,CLR,,0.00,WeatherDisplay:10.37,2013-10-10 01:32:00,
2013-10-09 21:33:00,60.9,51.8,30.25,North,3,0.0,0.0,72,0.00,CLR,,0.00,WeatherDisplay:10.37,2013-10-10 01:33:00,
2013-10-09 21:34:00,60.7,51.6,30.25,North,3,0.0,0.0,72,0.00,CLR,,0.00,WeatherDisplay:10.37,2013-10-10 01:34:00,
2013-10-09 21:35:00,60.7,51.6,30.25,North,3,0.0,0.0,72,0.00,CLR,,0.00,WeatherDisplay:10.37,2013-10-10 01:35:00,
2013-10-09 21:37:00,61.0,51.9,30.25,North,3,0.0,0.0,72,0.00,CLR,,0.00,WeatherDisplay:10.37,2013-10-10 01:37:00,
2013-10-09 21:38:00,60.5,51.4,30.25,North,3,0.0,0.0,72,0.00,CLR,,0.00,WeatherDisplay:10.37,2013-10-10 01:38:00,
2013-10-09 21:39:00,60.6,51.5,30.25,North,3,0.0,0.0,72,0.00,CLR,,0.00,WeatherDisplay:10.37,2013-10-10 01:39:00,
2013-10-09 21:40:00,60.7,51.6,30.25,North,3,0.0,0.0,72,0.00,CLR,,0.00,WeatherDisplay:10.37,2013-10-10 01:40:00,
2013-10-09 21:42:00,60.2,51.5,30.25,NE,51,0.2,3.5,73,0.00,CLR,,0.00,WeatherDisplay:10.37,2013-10-10 01:42:00,
2013-10-09 21:43:00,60.7,52.0,30.25,NE,51,0.0,3.5,73,0.00,CLR,,0.00,WeatherDisplay:10.37,2013-10-10 01:43:00,
2013-10-09 21:44:00,60.8,52.1,30.25,NE,51,0.0,0.0,73,0.00,CLR,,0.00,WeatherDisplay:10.37,2013-10-10 01:44:00,
2013-10-09 21:45:00,60.7,52.0,30.25,NE,51,0.0,0.0,73,0.00,CLR,,0.00,WeatherDisplay:10.37,2013-10-10 01:45:00,
2013-10-09 21:48:00,60.1,51.4,30.25,North,357,6.3,9.2,73,0.00,CLR,,0.00,WeatherDisplay:10.37,2013-10-10 01:48:00,
2013-10-09 21:50:00,60.3,51.6,30.25,North,3,0.1,1.1,73,0.00,CLR,,0.00,WeatherDisplay:10.37,2013-10-10 01:50:00,
2013-10-09 21:53:00,59.9,51.6,30.25,NNW,339,2.7,8.1,74,0.00,CLR,,0.00,WeatherDisplay:10.37,2013-10-10 01:53:00,
2013-10-09 21:55:00,59.7,51.4,30.25,NNW,339,0.0,0.0,74,0.00,CLR,,0.00,WeatherDisplay:10.37,2013-10-10 01:55:00,
2013-10-09 21:58:00,59.3,51.4,30.25,NW,316,0.9,4.6,75,0.00,CLR,,0.00,WeatherDisplay:10.37,2013-10-10 01:58:00,
2013-10-09 22:00:00,59.7,51.8,30.25,North,3,1.6,8.1,75,0.00,CLR,,0.00,WeatherDisplay:10.37,2013-10-10 02:00:00,
2013-10-09 22:01:00,59.4,51.5,30.25,WNW,295,2.2,6.9,75,0.00,CLR,,0.00,WeatherDisplay:10.37,2013-10-10 02:01:00,
2013-10-09 22:03:00,59.5,51.6,30.25,North,360,1.2,3.5,75,0.00,CLR,,0.00,WeatherDisplay:10.37,2013-10-10 02:03:00,
2013-10-09 22:04:00,59.0,51.1,30.25,North,360,0.5,5.8,75,0.00,CLR,,0.00,WeatherDisplay:10.37,2013-10-10 02:04:00,
2013-10-09 22:05:00,58.3,50.4,30.25,NNW,346,2.5,4.3,75,0.00,CLR,,0.00,WeatherDisplay:10.37,2013-10-10 02:05:00,
2013-10-09 22:06:00,59.1,51.5,30.25,NNE,13,2.7,6.9,76,0.00,CLR,,0.00,WeatherDisplay:10.37,2013-10-10 02:06:00,
2013-10-09 22:09:00,57.9,50.4,30.25,ENE,58,3.5,9.2,76,0.00,CLR,,0.00,WeatherDisplay:10.37,2013-10-10 02:09:00,
2013-10-09 22:10:00,58.7,51.2,30.25,NE,41,1.2,6.9,76,0.00,CLR,,0.00,WeatherDisplay:10.37,2013-10-10 02:10:00,
2013-10-09 22:11:00,58.6,51.1,30.25,NE,51,0.7,8.0,76,0.00,CLR,,0.00,WeatherDisplay:10.37,2013-10-10 02:11:00,
2013-10-09 22:14:00,57.3,50.1,30.25,North,352,2.4,8.1,77,0.00,CLR,,0.00,WeatherDisplay:10.37,2013-10-10 02:14:00,
2013-10-09 22:15:00,56.9,49.8,30.25,North,360,1.7,5.8,77,0.00,CLR,,0.00,WeatherDisplay:10.37,2013-10-10 02:15:00,
2013-10-09 22:16:00,58.3,51.1,30.25,North,360,0.0,6.9,77,0.00,CLR,,0.00,WeatherDisplay:10.37,2013-10-10 02:16:00,
2013-10-09 22:19:00,57.2,50.1,30.25,North,360,0.0,0.0,77,0.00,CLR,,0.00,WeatherDisplay:10.37,2013-10-10 02:19:00,
2013-10-09 22:20:00,58.3,51.1,30.25,North,8,1.3,4.6,77,0.00,CLR,,0.00,WeatherDisplay:10.37,2013-10-10 02:20:00,
2013-10-09 22:21:00,58.3,51.1,30.25,North,8,0.7,4.6,77,0.00,CLR,,0.00,WeatherDisplay:10.37,2013-10-10 02:21:00,
2013-10-09 22:24:00,56.4,49.3,30.25,North,6,1.3,3.5,77,0.00,CLR,,0.00,WeatherDisplay:10.37,2013-10-10 02:24:00,
2013-10-09 22:25:00,57.9,50.7,30.25,North,6,0.7,3.5,77,0.00,CLR,,0.00,WeatherDisplay:10.37,2013-10-10 02:25:00,
2013-10-09 22:26:00,57.4,50.2,30.25,North,6,0.0,0.0,77,0.00,CLR,,0.00,WeatherDisplay:10.37,2013-10-10 02:26:00,
2013-10-09 22:29:00,56.8,49.7,30.25,North,6,0.0,0.0,77,0.00,CLR,,0.00,WeatherDisplay:10.37,2013-10-10 02:29:00,
2013-10-09 22:30:00,56.6,49.5,30.25,North,6,0.0,0.0,77,0.00,CLR,,0.00,WeatherDisplay:10.37,2013-10-10 02:30:00,
2013-10-09 22:31:00,57.7,50.5,30.25,North,6,0.0,0.0,77,0.00,CLR,,0.00,WeatherDisplay:10.37,2013-10-10 02:31:00,
2013-10-09 22:32:00,58.4,51.2,30.25,North,6,0.0,0.0,77,0.00,CLR,,0.00,WeatherDisplay:10.37,2013-10-10 02:32:00,
2013-10-09 22:35:00,57.2,49.7,30.25,North,6,0.0,0.0,76,0.00,CLR,,0.00,WeatherDisplay:10.37,2013-10-10 02:35:00,
2013-10-09 22:36:00,57.9,50.4,30.24,North,6,0.0,0.0,76,0.00,CLR,,0.00,WeatherDisplay:10.37,2013-10-10 02:36:00,
2013-10-09 22:37:00,56.7,49.2,30.24,North,6,0.0,0.0,76,0.00,CLR,,0.00,WeatherDisplay:10.37,2013-10-10 02:37:00,
2013-10-09 22:40:00,56.8,49.3,30.24,North,6,0.0,0.0,76,0.00,CLR,,0.00,WeatherDisplay:10.37,2013-10-10 02:40:00,
2013-10-09 22:41:00,57.1,49.6,30.24,NNW,340,2.4,6.9,76,0.00,CLR,,0.00,WeatherDisplay:10.37,2013-10-10 02:41:00,
2013-10-09 22:42:00,56.8,49.3,30.24,NNW,340,0.0,3.5,76,0.00,CLR,,0.00,WeatherDisplay:10.37,2013-10-10 02:42:00,
2013-10-09 22:45:00,56.8,49.7,30.24,NNW,340,0.0,0.0,77,0.00,CLR,,0.00,WeatherDisplay:10.37,2013-10-10 02:45:00,
2013-10-09 22:46:00,57.3,50.1,30.24,NNW,340,0.0,0.0,77,0.00,CLR,,0.00,WeatherDisplay:10.37,2013-10-10 02:46:00,
2013-10-09 22:47:00,57.4,50.2,30.24,NNW,340,0.0,0.0,77,0.00,CLR,,0.00,WeatherDisplay:10.37,2013-10-10 02:47:00,
2013-10-09 22:50:00,56.4,49.3,30.24,NNW,340,0.0,0.0,77,0.00,CLR,,0.00,WeatherDisplay:10.37,2013-10-10 02:50:00,
2013-10-09 22:51:00,56.4,48.9,30.24,North,360,1.1,7.6,76,0.00,CLR,,0.00,WeatherDisplay:10.37,2013-10-10 02:51:00,
2013-10-09 22:52:00,57.0,49.5,30.24,North,360,3.6,8.1,76,0.00,CLR,,0.00,WeatherDisplay:10.37,2013-10-10 02:52:00,
2013-10-09 22:55:00,56.6,49.5,30.24,North,360,0.0,0.0,77,0.00,CLR,,0.00,WeatherDisplay:10.37,2013-10-10 02:55:00,
2013-10-09 22:56:00,56.6,49.5,30.24,North,360,0.0,0.0,77,0.00,CLR,,0.00,WeatherDisplay:10.37,2013-10-10 02:56:00,
2013-10-09 22:57:00,56.0,48.9,30.24,North,360,0.0,0.0,77,0.00,CLR,,0.00,WeatherDisplay:10.37,2013-10-10 02:57:00,
2013-10-09 23:00:00,56.7,49.6,30.23,North,360,0.0,0.0,77,0.00,CLR,,0.00,WeatherDisplay:10.37,2013-10-10 03:00:00,
2013-10-09 23:01:00,55.7,48.6,30.24,North,360,1.1,5.8,77,0.00,CLR,,0.00,WeatherDisplay:10.37,2013-10-10 03:01:00,
2013-10-09 23:02:00,55.4,48.3,30.24,North,3,2.5,5.8,77,0.00,CLR,,0.00,WeatherDisplay:10.37,2013-10-10 03:02:00,
2013-10-09 23:03:00,56.5,49.0,30.23,North,3,0.5,5.8,76,0.00,CLR,,0.00,WeatherDisplay:10.37,2013-10-10 03:03:00,
2013-10-09 23:05:00,55.7,48.6,30.24,North,3,0.0,0.0,77,0.00,CLR,,0.00,WeatherDisplay:10.37,2013-10-10 03:05:00,
2013-10-09 23:06:00,55.9,48.8,30.23,North,3,0.0,0.0,77,0.00,CLR,,0.00,WeatherDisplay:10.37,2013-10-10 03:06:00,
2013-10-09 23:07:00,56.7,49.6,30.23,North,3,0.0,0.0,77,0.00,CLR,,0.00,WeatherDisplay:10.37,2013-10-10 03:07:00,
2013-10-09 23:08:00,56.3,49.2,30.23,North,3,0.0,0.0,77,0.00,CLR,,0.00,WeatherDisplay:10.37,2013-10-10 03:08:00,
2013-10-09 23:10:00,56.0,48.9,30.23,North,3,0.0,0.0,77,0.00,CLR,,0.00,WeatherDisplay:10.37,2013-10-10 03:10:00,
2013-10-09 23:12:00,55.9,48.4,30.23,North,3,0.0,0.0,76,0.00,CLR,,0.00,WeatherDisplay:10.37,2013-10-10 03:12:00,
2013-10-09 23:13:00,56.5,49.4,30.23,North,3,0.0,0.0,77,0.00,CLR,,0.00,WeatherDisplay:10.37,2013-10-10 03:13:00,
2013-10-09 23:15:00,56.2,49.1,30.23,North,3,0.0,0.0,77,0.00,CLR,,0.00,WeatherDisplay:10.37,2013-10-10 03:15:00,
2013-10-09 23:17:00,55.8,48.7,30.23,North,3,0.0,0.0,77,0.00,CLR,,0.00,WeatherDisplay:10.37,2013-10-10 03:17:00,
2013-10-09 23:18:00,56.6,49.5,30.23,North,3,0.6,3.5,77,0.00,CLR,,0.00,WeatherDisplay:10.37,2013-10-10 03:18:00,
2013-10-09 23:20:00,55.6,48.5,30.23,North,3,0.0,0.0,77,0.00,CLR,,0.00,WeatherDisplay:10.37,2013-10-10 03:20:00,
2013-10-09 23:23:00,56.8,49.7,30.23,North,3,0.0,0.0,77,0.00,CLR,,0.00,WeatherDisplay:10.37,2013-10-10 03:23:00,
2013-10-09 23:25:00,55.3,48.2,30.23,North,3,0.0,2.3,77,0.00,CLR,,0.00,WeatherDisplay:10.37,2013-10-10 03:25:00,
2013-10-09 23:26:00,55.8,48.7,30.23,North,3,0.0,2.3,77,0.00,CLR,,0.00,WeatherDisplay:10.37,2013-10-10 03:26:00,
2013-10-09 23:28:00,56.8,49.7,30.23,North,3,0.0,0.0,77,0.00,CLR,,0.00,WeatherDisplay:10.37,2013-10-10 03:28:00,
2013-10-09 23:29:00,54.6,47.5,30.23,North,3,0.0,0.0,77,0.00,CLR,,0.00,WeatherDisplay:10.37,2013-10-10 03:29:00,
2013-10-09 23:30:00,55.7,48.2,30.23,North,3,0.0,0.0,76,0.00,CLR,,0.00,WeatherDisplay:10.37,2013-10-10 03:30:00,
2013-10-09 23:31:00,55.9,48.8,30.23,North,3,0.0,0.0,77,0.00,CLR,,0.00,WeatherDisplay:10.37,2013-10-10 03:31:00,
2013-10-09 23:33:00,54.1,46.7,30.23,North,11,1.2,0.0,76,0.00,CLR,,0.00,WeatherDisplay:10.37,2013-10-10 03:33:00,
2013-10-09 23:34:00,54.6,47.2,30.23,East,83,1.6,3.5,76,0.00,CLR,,0.00,WeatherDisplay:10.37,2013-10-10 03:34:00,
2013-10-09 23:35:00,56.0,48.5,30.23,NW,309,1.3,5.8,76,0.00,CLR,,0.00,WeatherDisplay:10.37,2013-10-10 03:35:00,
2013-10-09 23:37:00,54.6,47.2,30.23,NW,313,4.6,4.6,76,0.00,CLR,,0.00,WeatherDisplay:10.37,2013-10-10 03:37:00,
2013-10-09 23:38:00,55.1,47.7,30.23,North,354,3.2,8.1,76,0.00,CLR,,0.00,WeatherDisplay:10.37,2013-10-10 03:38:00,
2013-10-09 23:39:00,54.2,46.8,30.23,North,354,0.0,8.1,76,0.00,CLR,,0.00,WeatherDisplay:10.37,2013-10-10 03:39:00,
2013-10-09 23:40:00,54.8,47.4,30.23,North,354,0.0,0.0,76,0.00,CLR,,0.00,WeatherDisplay:10.37,2013-10-10 03:40:00,
2013-10-09 23:42:00,54.3,46.9,30.23,NNE,16,0.0,0.0,76,0.00,CLR,,0.00,WeatherDisplay:10.37,2013-10-10 03:42:00,
2013-10-09 23:43:00,55.1,47.7,30.23,WNW,298,1.0,2.5,76,0.00,CLR,,0.00,WeatherDisplay:10.37,2013-10-10 03:43:00,
2013-10-09 23:44:00,54.5,47.4,30.23,WNW,298,0.5,2.3,77,0.00,CLR,,0.00,WeatherDisplay:10.37,2013-10-10 03:44:00,
2013-10-09 23:45:00,54.1,47.0,30.23,NW,326,2.7,2.7,77,0.00,CLR,,0.00,WeatherDisplay:10.37,2013-10-10 03:45:00,
2013-10-09 23:46:00,54.8,47.7,30.23,NW,326,1.7,8.1,77,0.00,CLR,,0.00,WeatherDisplay:10.37,2013-10-10 03:46:00,
2013-10-09 23:47:00,55.1,48.0,30.22,NW,326,0.0,0.0,77,0.00,CLR,,0.00,WeatherDisplay:10.37,2013-10-10 03:47:00,
2013-10-09 23:48:00,54.4,47.3,30.22,NW,326,0.4,2.3,77,0.00,CLR,,0.00,WeatherDisplay:10.37,2013-10-10 03:48:00,
2013-10-09 23:49:00,54.2,47.1,30.22,NW,326,0.4,2.3,77,0.00,CLR,,0.00,WeatherDisplay:10.37,2013-10-10 03:49:00,
2013-10-09 23:51:00,55.2,48.1,30.22,NW,326,0.0,0.0,77,0.00,CLR,,0.00,WeatherDisplay:10.37,2013-10-10 03:51:00,
2013-10-09 23:52:00,53.9,46.9,30.22,NW,326,0.0,0.0,77,0.00,CLR,,0.00,WeatherDisplay:10.37,2013-10-10 03:52:00,
2013-10-09 23:53:00,54.7,47.3,30.22,NW,326,0.0,0.0,76,0.00,CLR,,0.00,WeatherDisplay:10.37,2013-10-10 03:53:00,
2013-10-09 23:54:00,54.5,47.4,30.22,North,349,1.2,9.2,77,0.00,CLR,,0.00,WeatherDisplay:10.37,2013-10-10 03:54:00,
2013-10-09 23:55:00,54.3,46.9,30.22,NNW,340,4.2,9.2,76,0.00,CLR,,0.00,WeatherDisplay:10.37,2013-10-10 03:55:00,
2013-10-09 23:56:00,53.7,46.3,30.22,North,1,8.1,9.2,76,0.00,CLR,,0.00,WeatherDisplay:10.37,2013-10-10 03:56:00,
2013-10-09 23:58:00,54.0,46.3,30.22,North,1,7.1,12.7,75,0.00,CLR,,0.00,WeatherDisplay:10.37,2013-10-10 03:58:00,
2013-10-09 23:59:00,54.2,46.8,30.22,WNW,287,1.9,9.2,76,0.00,CLR,,0.00,WeatherDisplay:10.37,2013-10-10 03:59:00,